M I D A S
Marine Information and Data Acquisition System
Tripno 1224 of the Zeeleeuw from 2007-03-05 08:13:01 to 2007-03-05 14:10:23
Back to CruiseResearch ActivitiesStationsMapUnderway DataData graphs

EquipmentUnitsComment
TimeDGPSUTC
LatitudeDGPSDM.mWGS84
LongitudeDGPSDM.mWGS84
TemperatureSBE03/SBE38deg celciusITS90
ConductivitySBE21S/mITS90
SalinitySBE21 Practical Salinity Units
ChlorophylAChelsea fluorimeterg/lCalibrated in Aceton
Missing or incorrect values are displayed as -999
Sea surface data collected by the RV Zeeleeuw from 2007-03-05 08:16:05 to 2007-03-05 14:20:24
                                                                                    Next 1000 lines
Time Latitude Longitude Temperature Conductivity Salinity ChlorophylA
2007-03-05 08:16:15 51°13.6 2°56.093 15.1432 4.661367 31.39208 -2.871232
2007-03-05 08:16:20 51°13.601 2°56.09 15.1834 4.661367 31.39208 -2.871232
2007-03-05 08:16:25 51°13.602 2°56.085 15.1001 4.661367 31.39208 -2.871232
2007-03-05 08:16:31 51°13.604 2°56.08 15.1615 4.661263 31.391298 -2.871232
2007-03-05 08:16:37 51°13.605 2°56.073 15.1145 4.661263 31.391298 -2.871232
2007-03-05 08:16:42 51°13.607 2°56.066 15.2424 4.661263 31.391887 -2.871232
2007-03-05 08:16:48 51°13.609 2°56.057 15.2302 4.661263 31.392477 -2.871232
2007-03-05 08:16:53 51°13.611 2°56.05 15.2003 4.661263 31.392477 -2.871232
2007-03-05 08:16:58 51°13.613 2°56.043 15.1949 4.66116 31.391695 -2.871232
2007-03-05 08:17:04 51°13.615 2°56.034 15.1974 4.66116 31.392285 -2.871232
2007-03-05 08:17:09 51°13.617 2°56.026 15.1972 4.66116 31.392285 -2.871232
2007-03-05 08:17:14 51°13.619 2°56.019 15.2186 4.66116 31.391695 -2.871232
2007-03-05 08:17:18 51°13.62 2°56.013 15.2168 4.661056 31.391502 -2.871232
2007-03-05 08:17:24 51°13.623 2°56.003 15.2209 4.661056 31.392092 -2.871232
2007-03-05 08:17:29 51°13.625 2°55.995 15.2157 4.661056 31.392092 -2.871232
2007-03-05 08:17:34 51°13.627 2°55.988 15.2279 4.660952 31.3919 -2.871232
2007-03-05 08:17:39 51°13.63 2°55.98 15.2106 4.660952 31.3919 -2.871232
2007-03-05 08:17:43 51°13.631 2°55.974 15.2181 4.660952 31.392489 -2.871232
2007-03-05 08:17:49 51°13.634 2°55.965 15.2092 4.660848 31.392297 -2.871232
2007-03-05 08:17:54 51°13.637 2°55.957 15.2038 4.660848 31.392297 -2.871232
2007-03-05 08:17:59 51°13.639 2°55.949 15.2057 4.660848 31.392297 -2.871232
2007-03-05 08:18:03 51°13.641 2°55.943 15.2049 4.660744 31.392104 -2.871232
2007-03-05 08:18:08 51°13.644 2°55.935 15.2105 4.660744 31.392104 -2.871232
2007-03-05 08:18:14 51°13.647 2°55.925 15.2138 4.660744 31.392104 -2.871232
2007-03-05 08:18:19 51°13.65 2°55.918 15.2126 4.660744 31.392694 -2.871232
2007-03-05 08:18:23 51°13.652 2°55.912 15.2068 4.660641 31.391912 -2.871232
2007-03-05 08:18:28 51°13.654 2°55.904 15.2021 4.660641 31.391912 -2.871232
2007-03-05 08:18:33 51°13.657 2°55.897 15.2012 4.660641 31.391912 -2.871232
2007-03-05 08:18:38 51°13.659 2°55.89 15.2032 4.660641 31.391912 -2.871232
2007-03-05 08:18:43 51°13.662 2°55.883 15.2097 4.660537 31.39113 -2.871232
2007-03-05 08:18:48 51°13.665 2°55.877 15.2119 4.660537 31.391719 -2.871232
2007-03-05 08:18:53 51°13.667 2°55.87 15.2117 4.660537 31.391719 -2.871232
2007-03-05 08:18:58 51°13.669 2°55.863 15.2163 4.660433 31.391527 -2.871232
2007-03-05 08:19:03 51°13.671 2°55.857 15.2197 4.660433 31.391527 -2.871232
2007-03-05 08:19:08 51°13.674 2°55.851 15.2182 4.660433 31.391527 -2.871232
2007-03-05 08:19:12 51°13.675 2°55.846 15.2143 4.660433 31.392117 -2.871232
2007-03-05 08:19:17 51°13.677 2°55.84 15.2107 4.660329 31.391924 -2.871232
2007-03-05 08:19:23 51°13.68 2°55.834 15.2093 4.660329 31.392514 -2.871232
2007-03-05 08:19:27 51°13.681 2°55.83 15.2073 4.660329 31.392514 -2.871232
2007-03-05 08:19:32 51°13.683 2°55.824 15.206 4.660225 31.392322 -2.871232
2007-03-05 08:19:37 51°13.685 2°55.819 15.2045 4.660225 31.392322 -2.871232
2007-03-05 08:19:42 51°13.686 2°55.814 15.206 4.660225 31.392322 -2.871232
2007-03-05 08:19:47 51°13.688 2°55.809 15.2078 4.660225 31.392912 -2.871232
2007-03-05 08:19:52 51°13.689 2°55.804 15.2102 4.660121 31.392129 -2.871232
2007-03-05 08:19:57 51°13.691 2°55.799 15.212 4.660121 31.392129 -2.871232
2007-03-05 08:20:01 51°13.692 2°55.796 15.2118 4.660018 31.391347 -2.871232
2007-03-05 08:20:07 51°13.693 2°55.79 15.213 4.660018 31.391347 -2.871232
2007-03-05 08:20:11 51°13.694 2°55.787 15.2142 4.660018 31.391937 -2.871232
2007-03-05 08:20:16 51°13.695 2°55.784 15.2159 4.660018 31.391937 -2.871232
2007-03-05 08:20:21 51°13.696 2°55.78 15.2283 4.659914 31.391154 -2.871232
2007-03-05 08:20:26 51°13.697 2°55.777 15.2242 4.659914 31.391744 -2.871232
2007-03-05 08:20:31 51°13.698 2°55.775 15.237 4.659914 31.391744 -2.871232
2007-03-05 08:20:36 51°13.698 2°55.774 15.2267 4.659914 31.391744 -2.871232
2007-03-05 08:20:41 51°13.698 2°55.773 15.2394 4.65981 31.391552 -2.871232
2007-03-05 08:20:46 51°13.699 2°55.773 15.2288 4.65981 31.391552 -2.871232
2007-03-05 08:20:51 51°13.699 2°55.774 15.2272 4.65981 31.392142 -2.871232
2007-03-05 08:20:56 51°13.7 2°55.774 15.2255 4.659706 31.391949 -2.871232
2007-03-05 08:21:00 51°13.701 2°55.775 15.2251 4.659706 31.392539 -2.871232
2007-03-05 08:21:05 51°13.702 2°55.775 15.2214 4.659706 31.392539 -2.871232
2007-03-05 08:21:10 51°13.703 2°55.775 15.2232 4.659602 31.391757 -2.871232
2007-03-05 08:21:15 51°13.704 2°55.775 15.1786 4.659602 31.391757 -2.871232
2007-03-05 08:21:20 51°13.704 2°55.774 15.1837 4.659602 31.392347 -2.871232
2007-03-05 08:21:25 51°13.704 2°55.772 15.2063 4.659498 31.391564 -2.871232
2007-03-05 08:21:30 51°13.704 2°55.771 15.2301 4.659498 31.391564 -2.871232
2007-03-05 08:21:35 51°13.704 2°55.769 15.2121 4.659498 31.391564 -2.871232
2007-03-05 08:21:40 51°13.704 2°55.767 15.1992 4.659498 31.392154 -2.871232
2007-03-05 08:21:45 51°13.703 2°55.765 15.2333 4.659395 31.391372 -2.871232
2007-03-05 08:21:50 51°13.703 2°55.763 15.2456 4.659395 31.391372 -2.871232
2007-03-05 08:21:55 51°13.702 2°55.761 15.2448 4.659291 31.391179 -2.871232
2007-03-05 08:22:00 51°13.702 2°55.758 15.2236 4.659291 31.390589 -2.871232
2007-03-05 08:22:05 51°13.701 2°55.756 15.2317 4.659291 31.390589 -2.871232
2007-03-05 08:22:10 51°13.701 2°55.754 15.2243 4.659291 31.391179 -2.871232
2007-03-05 08:22:15 51°13.7 2°55.752 15.2224 4.659187 31.390397 -2.871232
2007-03-05 08:22:20 51°13.699 2°55.75 15.2219 4.659187 31.390397 -2.871232
2007-03-05 08:22:25 51°13.699 2°55.749 15.227 4.659187 31.390987 -2.871232
2007-03-05 08:22:30 51°13.698 2°55.747 15.2345 4.659083 31.390794 -2.871232
2007-03-05 08:22:35 51°13.698 2°55.746 15.2366 4.659083 31.390794 -2.871232
2007-03-05 08:22:40 51°13.698 2°55.745 15.239 4.659083 31.390794 -2.871232
2007-03-05 08:22:45 51°13.698 2°55.744 15.2384 4.659083 31.391384 -2.871232
2007-03-05 08:22:50 51°13.698 2°55.743 15.2365 4.658979 31.390602 -2.871232
2007-03-05 08:22:55 51°13.698 2°55.743 15.2389 4.658979 31.390602 -2.871232
2007-03-05 08:23:00 51°13.698 2°55.743 15.2498 4.658876 31.390409 -2.871232
2007-03-05 08:23:05 51°13.698 2°55.743 15.2359 4.658876 31.390409 -2.871232
2007-03-05 08:23:10 51°13.698 2°55.744 15.2488 4.658876 31.390409 -2.871232
2007-03-05 08:23:15 51°13.698 2°55.745 15.2548 4.658876 31.390999 -2.871232
2007-03-05 08:23:20 51°13.698 2°55.745 15.2586 4.658772 31.390807 -2.871232
2007-03-05 08:23:25 51°13.7 2°55.745 15.2549 4.658772 31.390807 -2.871232
2007-03-05 08:23:30 51°13.701 2°55.744 15.2496 4.658668 31.390024 -2.871232
2007-03-05 08:23:35 51°13.703 2°55.744 15.2484 4.658668 31.390024 -2.871232
2007-03-05 08:23:40 51°13.704 2°55.744 15.2484 4.658668 31.390614 -2.871232
2007-03-05 08:23:45 51°13.705 2°55.746 15.2474 4.658668 31.390614 -2.871232
2007-03-05 08:23:50 51°13.706 2°55.746 15.2497 4.658564 31.390422 -2.871232
2007-03-05 08:23:55 51°13.707 2°55.747 15.2658 4.658564 31.391012 -2.871232
2007-03-05 08:24:00 51°13.708 2°55.746 15.2746 4.658564 31.391012 -2.871232
2007-03-05 08:24:05 51°13.711 2°55.746 15.3363 4.658564 31.391012 -2.871232
2007-03-05 08:24:10 51°13.714 2°55.745 15.3467 4.65846 31.390229 -2.871232
2007-03-05 08:24:15 51°13.717 2°55.743 15.33 4.65846 31.391409 -2.871232
2007-03-05 08:24:20 51°13.72 2°55.741 15.3271 4.65846 31.391409 -2.871232
2007-03-05 08:24:25 51°13.724 2°55.738 15.3263 4.65846 31.390819 -2.871232
2007-03-05 08:24:30 51°13.728 2°55.734 15.3169 4.658356 31.390037 -2.871232
2007-03-05 08:24:35 51°13.732 2°55.73 15.3054 4.658356 31.390037 -2.871232
2007-03-05 08:24:40 51°13.736 2°55.725 15.2676 4.658356 31.389446 -2.871232
2007-03-05 08:24:45 51°13.742 2°55.72 15.2647 4.658356 31.388856 -2.871232
2007-03-05 08:24:50 51°13.747 2°55.715 15.2486 4.658253 31.388664 -2.871232
2007-03-05 08:24:55 51°13.753 2°55.708 15.2446 4.658253 31.388074 -2.871232
2007-03-05 08:25:00 51°13.76 2°55.702 15.2429 4.658253 31.389254 -2.871232
2007-03-05 08:25:05 51°13.767 2°55.695 15.2271 4.658253 31.389254 -2.871232
2007-03-05 08:25:10 51°13.774 2°55.689 15.2219 4.658253 31.389254 -2.871232
2007-03-05 08:25:15 51°13.782 2°55.682 15.1964 4.658149 31.389061 -2.871232
2007-03-05 08:25:20 51°13.79 2°55.675 15.1864 4.658149 31.389651 -2.871232
2007-03-05 08:25:24 51°13.797 2°55.67 15.1828 4.658149 31.390242 -2.871232
2007-03-05 08:25:30 51°13.807 2°55.662 15.1903 4.658045 31.390049 -2.871232
2007-03-05 08:25:35 51°13.816 2°55.656 15.1897 4.658045 31.390049 -2.871232
2007-03-05 08:25:40 51°13.825 2°55.649 15.1944 4.658045 31.390639 -2.871232
2007-03-05 08:25:45 51°13.835 2°55.642 15.2062 4.658045 31.39123 -2.871232
2007-03-05 08:25:50 51°13.845 2°55.635 15.2065 4.657941 31.390447 -2.871232
2007-03-05 08:25:55 51°13.855 2°55.627 15.2074 4.657941 31.391037 -2.871232
2007-03-05 08:26:00 51°13.865 2°55.62 15.1753 4.657941 31.391037 -2.871232
2007-03-05 08:26:05 51°13.875 2°55.612 15.2179 4.657941 31.391037 -2.871232
2007-03-05 08:26:10 51°13.885 2°55.605 15.1552 4.657837 31.390254 -2.871232
2007-03-05 08:26:15 51°13.896 2°55.597 15.2006 4.657837 31.390845 -2.871232
2007-03-05 08:26:20 51°13.906 2°55.59 15.1925 4.657837 31.391435 -2.871232
2007-03-05 08:26:25 51°13.916 2°55.583 15.1963 4.657734 31.390652 -2.871232
2007-03-05 08:26:30 51°13.927 2°55.575 15.2008 4.657734 31.391242 -2.871232
2007-03-05 08:26:35 51°13.937 2°55.567 15.2057 4.657734 31.391242 -2.871232
2007-03-05 08:26:40 51°13.947 2°55.559 15.2133 4.65763 31.390459 -2.871232
2007-03-05 08:26:45 51°13.957 2°55.551 15.2203 4.65763 31.390459 -2.871232
2007-03-05 08:26:50 51°13.968 2°55.543 15.2213 4.65763 31.390459 -2.871232
2007-03-05 08:26:55 51°13.978 2°55.535 15.2229 4.657526 31.390267 -2.871232
2007-03-05 08:27:00 51°13.988 2°55.528 15.2207 4.657526 31.390267 -2.871232
2007-03-05 08:27:05 51°13.998 2°55.52 15.2212 4.657526 31.390267 -2.871232
2007-03-05 08:27:10 51°14.008 2°55.512 15.2218 4.657526 31.390857 -2.871232
2007-03-05 08:27:15 51°14.019 2°55.504 15.2143 4.657422 31.390074 -2.871232
2007-03-05 08:27:20 51°14.029 2°55.496 15.209 4.657422 31.390665 -2.871232
2007-03-05 08:27:25 51°14.039 2°55.489 15.2139 4.657422 31.390665 -2.871232
2007-03-05 08:27:30 51°14.049 2°55.481 15.2175 4.657318 31.390472 -2.871232
2007-03-05 08:27:35 51°14.06 2°55.473 15.2187 4.657318 31.390472 -2.871232
2007-03-05 08:27:40 51°14.07 2°55.466 15.2243 4.657318 31.390472 -2.871232
2007-03-05 08:27:45 51°14.08 2°55.458 15.2299 4.657214 31.389689 -2.871232
2007-03-05 08:27:49 51°14.088 2°55.452 15.2275 4.657214 31.39028 -2.871232
2007-03-05 08:27:55 51°14.1 2°55.443 15.197 4.657214 31.39028 -2.871232
2007-03-05 08:28:00 51°14.11 2°55.435 15.2355 4.657111 31.388906 -2.871232
2007-03-05 08:28:05 51°14.121 2°55.427 15.2732 4.657111 31.388906 -2.871232
2007-03-05 08:28:10 51°14.13 2°55.419 15.2484 4.657111 31.389497 -2.871232
2007-03-05 08:28:15 51°14.141 2°55.411 15.2411 4.657111 31.390087 -2.871232
2007-03-05 08:28:20 51°14.15 2°55.403 15.2486 4.657007 31.389304 -2.871232
2007-03-05 08:28:25 51°14.16 2°55.395 15.3801 4.657007 31.389304 -2.871232
2007-03-05 08:28:30 51°14.17 2°55.386 15.348 4.656903 31.389702 -2.871232
2007-03-05 08:28:35 51°14.18 2°55.377 15.3429 4.656903 31.389702 -2.871232
2007-03-05 08:28:40 51°14.189 2°55.368 15.3545 4.656903 31.389702 -2.871232
2007-03-05 08:28:45 51°14.198 2°55.358 15.3593 4.656903 31.389702 -2.871232
2007-03-05 08:28:50 51°14.207 2°55.348 15.3469 4.656903 31.390292 -2.871232
2007-03-05 08:28:55 51°14.216 2°55.338 15.3553 4.656799 31.389509 -2.871232
2007-03-05 08:29:00 51°14.225 2°55.327 15.3589 4.656799 31.3901 -2.871232
2007-03-05 08:29:05 51°14.233 2°55.316 15.3665 4.656799 31.3901 -2.871232
2007-03-05 08:29:10 51°14.241 2°55.304 15.351 4.656799 31.3901 -2.871232
2007-03-05 08:29:16 51°14.251 2°55.29 15.3053 4.656695 31.389907 -2.871232
2007-03-05 08:29:21 51°14.259 2°55.278 15.3207 4.656695 31.389907 -2.871232
2007-03-05 08:29:26 51°14.266 2°55.265 15.2862 4.656695 31.389907 -2.871232
2007-03-05 08:29:31 51°14.274 2°55.253 15.2732 4.656591 31.389124 -2.871232
2007-03-05 08:29:36 51°14.281 2°55.239 15.3199 4.656591 31.389124 -2.871232
2007-03-05 08:29:41 51°14.288 2°55.226 15.2754 4.656591 31.389715 -2.871232
2007-03-05 08:29:46 51°14.295 2°55.212 15.2177 4.656488 31.388932 -2.871232
2007-03-05 08:29:51 51°14.303 2°55.199 15.2386 4.656488 31.389522 -2.871232
2007-03-05 08:29:56 51°14.31 2°55.186 15.203 4.656384 31.388739 -2.871232
2007-03-05 08:30:01 51°14.317 2°55.173 15.1649 4.656384 31.388739 -2.871232
2007-03-05 08:30:06 51°14.325 2°55.159 15.188 4.656384 31.388739 -2.871232
2007-03-05 08:30:11 51°14.333 2°55.146 15.2101 4.656384 31.388739 -2.871232
2007-03-05 08:30:16 51°14.341 2°55.133 15.2189 4.65628 31.388547 -2.871232
2007-03-05 08:30:20 51°14.348 2°55.122 15.2207 4.65628 31.389137 -2.871232
2007-03-05 08:30:25 51°14.356 2°55.109 15.2331 4.65628 31.389728 -2.871232
2007-03-05 08:30:30 51°14.365 2°55.095 15.2554 4.65628 31.389728 -2.871232
2007-03-05 08:30:35 51°14.374 2°55.082 15.1556 4.65628 31.389728 -2.871232
2007-03-05 08:30:40 51°14.384 2°55.068 15.1362 4.656176 31.389535 -2.871232
2007-03-05 08:30:45 51°14.393 2°55.055 15.0662 4.656176 31.389535 -2.871232
2007-03-05 08:30:50 51°14.403 2°55.042 14.8782 4.652023 31.358807 -2.871232
2007-03-05 08:30:55 51°14.414 2°55.03 14.9498 4.655138 31.383476 -2.871232
2007-03-05 08:31:00 51°14.424 2°55.018 14.9892 4.655449 31.386416 -2.871232
2007-03-05 08:31:05 51°14.435 2°55.008 14.8287 4.655449 31.386416 -2.871232
2007-03-05 08:31:10 51°14.447 2°54.998 14.837 4.655553 31.387199 -2.871232
2007-03-05 08:31:15 51°14.458 2°54.989 14.835 4.655553 31.387199 -2.871232
2007-03-05 08:31:20 51°14.47 2°54.98 14.8616 4.655553 31.387789 -2.871232
2007-03-05 08:31:25 51°14.482 2°54.971 14.8412 4.655553 31.387789 -2.871232
2007-03-05 08:31:30 51°14.494 2°54.962 14.8362 4.655553 31.387199 -2.871232
2007-03-05 08:31:35 51°14.505 2°54.953 14.8351 4.655553 31.387199 -2.871232
2007-03-05 08:31:40 51°14.517 2°54.943 14.8575 4.655553 31.387789 -2.871232
2007-03-05 08:31:45 51°14.529 2°54.933 14.8614 4.655553 31.387199 -2.871232
2007-03-05 08:31:50 51°14.541 2°54.924 14.8383 4.655553 31.387199 -2.871232
2007-03-05 08:31:55 51°14.552 2°54.914 14.8513 4.655553 31.387789 -2.871232
2007-03-05 08:32:00 51°14.564 2°54.904 14.8388 4.655449 31.387597 -2.871232
2007-03-05 08:32:05 51°14.576 2°54.894 14.8236 4.655449 31.387597 -2.871232
2007-03-05 08:32:09 51°14.585 2°54.886 14.845 4.655449 31.388778 -2.871232
2007-03-05 08:32:15 51°14.599 2°54.873 14.7351 4.655449 31.39055 -2.871232
2007-03-05 08:32:19 51°14.608 2°54.865 14.7568 4.655346 31.390948 -2.871232
2007-03-05 08:32:24 51°14.619 2°54.854 14.7258 4.655346 31.390948 -2.871232
2007-03-05 08:32:29 51°14.63 2°54.843 14.737 4.655242 31.390755 -2.871232
2007-03-05 08:32:35 51°14.643 2°54.83 14.6584 4.655242 31.390755 -2.871232
2007-03-05 08:32:40 51°14.654 2°54.818 14.7072 4.655346 31.390357 -2.871232
2007-03-05 08:32:44 51°14.663 2°54.809 14.6856 4.655346 31.389176 -2.871232
2007-03-05 08:32:49 51°14.674 2°54.797 14.6652 4.655138 31.387019 -2.871232
2007-03-05 08:32:54 51°14.685 2°54.787 14.6807 4.655138 31.387019 -2.871232
2007-03-05 08:32:59 51°14.696 2°54.776 14.681 4.655242 31.387802 -2.871232
2007-03-05 08:33:04 51°14.707 2°54.765 14.6846 4.655242 31.387802 -2.871232
2007-03-05 08:33:09 51°14.718 2°54.754 14.6529 4.655138 31.387609 -2.871232
2007-03-05 08:33:15 51°14.732 2°54.74 14.6261 4.655138 31.3882 -2.871232
2007-03-05 08:33:19 51°14.741 2°54.731 14.6388 4.655034 31.388598 -2.871232
2007-03-05 08:33:24 51°14.753 2°54.72 14.6461 4.655034 31.389779 -2.871232
2007-03-05 08:33:29 51°14.765 2°54.708 14.6277 4.652127 31.367851 -2.871232
2007-03-05 08:33:35 51°14.78 2°54.694 14.6288 4.652127 31.367851 -2.871232
2007-03-05 08:33:39 51°14.79 2°54.685 14.6399 4.652854 31.374513 -2.871232
2007-03-05 08:33:44 51°14.803 2°54.673 14.5908 4.653477 31.379803 -2.871232
2007-03-05 08:33:50 51°14.818 2°54.659 14.5637 4.653581 31.380586 -2.871232
2007-03-05 08:33:55 51°14.832 2°54.647 14.593 4.653788 31.381562 -2.871232
2007-03-05 08:33:59 51°14.842 2°54.637 14.5769 4.653788 31.381562 -2.871232
2007-03-05 08:34:04 51°14.856 2°54.624 14.5609 4.653788 31.381562 -2.871232
2007-03-05 08:34:09 51°14.87 2°54.611 14.5621 4.653892 31.382345 -2.871232
2007-03-05 08:34:15 51°14.887 2°54.594 14.5953 4.653996 31.383128 -2.871232
2007-03-05 08:34:19 51°14.899 2°54.584 14.5287 4.653996 31.383128 -2.871232
2007-03-05 08:34:24 51°14.913 2°54.57 14.5675 4.653996 31.38431 -2.871232
2007-03-05 08:34:29 51°14.928 2°54.556 14.5463 4.653996 31.386082 -2.871232
2007-03-05 08:34:35 51°14.945 2°54.538 14.5813 4.653996 31.386082 -2.871232
2007-03-05 08:34:39 51°14.957 2°54.527 14.5722 4.653892 31.38707 -2.871232
2007-03-05 08:34:44 51°14.971 2°54.512 14.5835 4.653892 31.388252 -2.871232
2007-03-05 08:34:49 51°14.985 2°54.497 14.5446 4.653996 31.389626 -2.871232
2007-03-05 08:34:55 51°15.003 2°54.479 14.5561 4.653892 31.387661 -2.871232
2007-03-05 08:35:00 51°15.016 2°54.464 14.5534 4.653788 31.386287 -2.871232
2007-03-05 08:35:04 51°15.028 2°54.452 14.523 4.653788 31.386287 -2.871232
2007-03-05 08:35:09 51°15.041 2°54.436 14.5109 4.653788 31.385106 -2.871232
2007-03-05 08:35:15 51°15.058 2°54.418 14.5326 4.653684 31.383732 -2.871232
2007-03-05 08:35:20 51°15.071 2°54.403 14.5061 4.653684 31.383141 -2.871232
2007-03-05 08:35:24 51°15.082 2°54.391 14.5074 4.653788 31.384515 -2.871232
2007-03-05 08:35:29 51°15.096 2°54.375 14.5107 4.653684 31.383141 -2.871232
2007-03-05 08:35:35 51°15.113 2°54.357 14.5188 4.653684 31.383141 -2.871232
2007-03-05 08:35:40 51°15.127 2°54.342 14.5142 4.653684 31.383732 -2.871232
2007-03-05 08:35:45 51°15.141 2°54.327 14.493 4.653684 31.384913 -2.871232
2007-03-05 08:35:49 51°15.153 2°54.316 14.4996 4.653581 31.385311 -2.871232
2007-03-05 08:35:54 51°15.168 2°54.302 14.4945 4.653684 31.386685 -2.871232
2007-03-05 08:35:59 51°15.183 2°54.288 14.48 4.653581 31.385902 -2.871232
2007-03-05 08:36:05 51°15.201 2°54.27 14.4955 4.653581 31.385902 -2.871232
2007-03-05 08:36:10 51°15.216 2°54.255 14.4827 4.653477 31.385709 -2.871232
2007-03-05 08:36:15 51°15.23 2°54.241 14.4993 4.653581 31.387083 -2.871232
2007-03-05 08:36:19 51°15.242 2°54.229 14.4956 4.653477 31.386891 -2.871232
2007-03-05 08:36:24 51°15.257 2°54.213 14.4851 4.653581 31.388265 -2.871232
2007-03-05 08:36:29 51°15.271 2°54.198 14.4731 4.653373 31.387289 -2.871232
2007-03-05 08:36:35 51°15.289 2°54.179 14.4758 4.653373 31.387289 -2.871232
2007-03-05 08:36:40 51°15.304 2°54.164 14.4842 4.653477 31.388663 -2.871232
2007-03-05 08:36:44 51°15.315 2°54.152 14.4764 4.653477 31.385709 -2.871232
2007-03-05 08:36:49 51°15.33 2°54.137 14.5003 4.653373 31.381382 -2.871232
2007-03-05 08:36:55 51°15.349 2°54.118 14.4842 4.653477 31.380393 -2.871232
2007-03-05 08:36:59 51°15.361 2°54.107 14.4805 4.653477 31.380393 -2.871232
2007-03-05 08:37:05 51°15.379 2°54.089 14.4892 4.653477 31.380393 -2.871232
2007-03-05 08:37:09 51°15.391 2°54.077 14.4891 4.653373 31.381972 -2.871232
2007-03-05 08:37:15 51°15.409 2°54.059 14.4781 4.653373 31.384926 -2.871232
2007-03-05 08:37:20 51°15.424 2°54.043 14.4938 4.653269 31.387096 -2.871232
2007-03-05 08:37:24 51°15.437 2°54.031 14.489 4.653269 31.390642 -2.871232
2007-03-05 08:37:29 51°15.452 2°54.016 14.4788 4.653165 31.391631 -2.871232
2007-03-05 08:37:34 51°15.467 2°54 14.4925 4.653165 31.391631 -2.871232
2007-03-05 08:37:39 51°15.483 2°53.986 14.4951 4.653269 31.393006 -2.871232
2007-03-05 08:37:45 51°15.501 2°53.968 14.4905 4.653373 31.393199 -2.871232
2007-03-05 08:37:49 51°15.514 2°53.955 14.5097 4.653165 31.390449 -2.871232
2007-03-05 08:37:55 51°15.532 2°53.937 14.4811 4.653062 31.388484 -2.871232
2007-03-05 08:37:59 51°15.545 2°53.925 14.4907 4.653062 31.387302 -2.871232
2007-03-05 08:38:04 51°15.56 2°53.91 14.4939 4.653062 31.387302 -2.871232
2007-03-05 08:38:10 51°15.579 2°53.891 14.5101 4.652854 31.385144 -2.871232
2007-03-05 08:38:15 51°15.594 2°53.877 14.5103 4.652854 31.385735 -2.871232
2007-03-05 08:38:19 51°15.606 2°53.864 14.4979 4.65275 31.385543 -2.871232
2007-03-05 08:38:25 51°15.625 2°53.846 14.501 4.652854 31.387508 -2.871232
2007-03-05 08:38:30 51°15.64 2°53.83 14.4949 4.652646 31.386532 -2.871232
2007-03-05 08:38:35 51°15.655 2°53.814 14.4944 4.652646 31.386532 -2.871232
2007-03-05 08:38:39 51°15.668 2°53.802 14.5012 4.652542 31.387521 -2.871232
2007-03-05 08:38:44 51°15.683 2°53.786 14.5088 4.652646 31.388896 -2.871232
2007-03-05 08:38:50 51°15.701 2°53.768 14.5139 4.652439 31.387919 -2.871232
2007-03-05 08:38:55 51°15.717 2°53.752 14.497 4.652335 31.387136 -2.871232
2007-03-05 08:39:00 51°15.732 2°53.736 14.4951 4.652542 31.388703 -2.871232
2007-03-05 08:39:04 51°15.744 2°53.724 14.4991 4.652542 31.388703 -2.871232
2007-03-05 08:39:09 51°15.759 2°53.709 14.5159 4.652335 31.386545 -2.871232
2007-03-05 08:39:14 51°15.775 2°53.695 14.5151 4.652231 31.385761 -2.871232
2007-03-05 08:39:19 51°15.791 2°53.681 14.4958 4.652127 31.38616 -2.871232
2007-03-05 08:39:25 51°15.808 2°53.662 14.5001 4.652231 31.386943 -2.871232
2007-03-05 08:39:29 51°15.821 2°53.65 14.5072 4.652127 31.385569 -2.871232
2007-03-05 08:39:35 51°15.839 2°53.631 14.5094 4.652127 31.385569 -2.871232
2007-03-05 08:39:40 51°15.854 2°53.616 14.5083 4.652127 31.38616 -2.871232
2007-03-05 08:39:44 51°15.866 2°53.604 14.5132 4.652023 31.385376 -2.871232
2007-03-05 08:39:50 51°15.885 2°53.586 14.5036 4.651816 31.384991 -2.871232
2007-03-05 08:39:55 51°15.9 2°53.57 14.5095 4.65192 31.386957 -2.871232
2007-03-05 08:39:59 51°15.912 2°53.557 14.5097 4.651816 31.386173 -2.871232
2007-03-05 08:40:05 51°15.93 2°53.538 14.5104 4.651816 31.386173 -2.871232
2007-03-05 08:40:09 51°15.942 2°53.526 14.5202 4.651816 31.386764 -2.871232
2007-03-05 08:40:15 51°15.96 2°53.507 14.5082 4.651712 31.386571 -2.871232
2007-03-05 08:40:19 51°15.972 2°53.495 14.5153 4.651608 31.38697 -2.871232
2007-03-05 08:40:24 51°15.987 2°53.48 14.5142 4.651608 31.38697 -2.871232
2007-03-05 08:40:29 51°16.002 2°53.464 14.5488 4.6514 31.385994 -2.871232
2007-03-05 08:40:34 51°16.018 2°53.449 14.52 4.6514 31.385994 -2.871232
2007-03-05 08:40:39 51°16.032 2°53.433 14.5127 4.651504 31.386186 -2.871232
2007-03-05 08:40:44 51°16.047 2°53.417 14.5176 4.6514 31.385402 -2.871232
2007-03-05 08:40:50 51°16.065 2°53.399 14.5212 4.651297 31.386392 -2.871232
2007-03-05 08:40:55 51°16.08 2°53.382 14.5367 4.651297 31.386392 -2.871232
2007-03-05 08:40:59 51°16.092 2°53.37 14.5276 4.651297 31.386983 -2.871232
2007-03-05 08:41:04 51°16.107 2°53.354 14.53 4.651297 31.386983 -2.871232
2007-03-05 08:41:09 51°16.122 2°53.338 14.525 4.651193 31.386791 -2.871232
2007-03-05 08:41:15 51°16.14 2°53.319 14.5377 4.650985 31.385814 -2.871232
2007-03-05 08:41:19 51°16.152 2°53.307 14.5441 4.651089 31.38778 -2.871232
2007-03-05 08:41:24 51°16.167 2°53.291 14.545 4.650985 31.386405 -2.871232
2007-03-05 08:41:29 51°16.182 2°53.275 14.5385 4.650881 31.385622 -2.871232
2007-03-05 08:41:34 51°16.197 2°53.259 14.5406 4.650881 31.385622 -2.871232
2007-03-05 08:41:39 51°16.212 2°53.244 14.5425 4.650881 31.386804 -2.871232
2007-03-05 08:41:44 51°16.227 2°53.228 14.5421 4.650985 31.387588 -2.871232
2007-03-05 08:41:49 51°16.242 2°53.213 14.5486 4.650778 31.386611 -2.871232
2007-03-05 08:41:55 51°16.26 2°53.194 14.5424 4.650674 31.386419 -2.871232
2007-03-05 08:42:00 51°16.275 2°53.178 14.544 4.650674 31.38701 -2.871232
2007-03-05 08:42:04 51°16.287 2°53.166 14.568 4.650674 31.38701 -2.871232
2007-03-05 08:42:10 51°16.305 2°53.148 14.5428 4.65057 31.386817 -2.871232
2007-03-05 08:42:15 51°16.32 2°53.132 14.5457 4.650466 31.386625 -2.871232
2007-03-05 08:42:19 51°16.332 2°53.12 14.5544 4.650466 31.387807 -2.871232
2007-03-05 08:42:25 51°16.351 2°53.102 14.5494 4.650258 31.38624 -2.871232
2007-03-05 08:42:29 51°16.363 2°53.09 14.5515 4.650362 31.387023 -2.871232
2007-03-05 08:42:35 51°16.381 2°53.071 14.5531 4.650362 31.387023 -2.871232
2007-03-05 08:42:39 51°16.393 2°53.059 14.5477 4.650258 31.386831 -2.871232
2007-03-05 08:42:44 51°16.408 2°53.043 14.5494 4.650258 31.38624 -2.871232
2007-03-05 08:42:49 51°16.423 2°53.028 14.5592 4.650051 31.385854 -2.871232
2007-03-05 08:42:54 51°16.438 2°53.013 14.5657 4.650051 31.385854 -2.871232
2007-03-05 08:42:59 51°16.454 2°52.999 14.5724 4.650051 31.385854 -2.871232
2007-03-05 08:43:04 51°16.47 2°52.987 14.5669 4.650051 31.385854 -2.871232
2007-03-05 08:43:09 51°16.486 2°52.975 14.5667 4.649947 31.38507 -2.871232
2007-03-05 08:43:15 51°16.506 2°52.964 14.5733 4.649843 31.384878 -2.871232
2007-03-05 08:43:19 51°16.519 2°52.957 14.5696 4.649843 31.38606 -2.871232
2007-03-05 08:43:24 51°16.536 2°52.948 14.59 4.649739 31.385276 -2.871232
2007-03-05 08:43:29 51°16.554 2°52.941 14.5788 4.649635 31.385675 -2.871232
2007-03-05 08:43:35 51°16.574 2°52.932 14.5753 4.649635 31.385675 -2.871232
2007-03-05 08:43:40 51°16.591 2°52.925 14.5682 4.649636 31.386858 -2.871232
2007-03-05 08:43:44 51°16.605 2°52.919 14.5725 4.649532 31.386074 -2.871232
2007-03-05 08:43:49 51°16.622 2°52.911 14.5703 4.649324 31.385689 -2.871232
2007-03-05 08:43:54 51°16.638 2°52.901 14.5672 4.649428 31.387064 -2.871232
2007-03-05 08:44:00 51°16.658 2°52.89 14.5799 4.649428 31.387064 -2.871232
2007-03-05 08:44:05 51°16.675 2°52.881 14.5738 4.649428 31.387064 -2.871232
2007-03-05 08:44:09 51°16.689 2°52.872 14.5786 4.64922 31.385496 -2.871232
2007-03-05 08:44:14 51°16.705 2°52.862 14.5828 4.649116 31.385303 -2.871232
2007-03-05 08:44:19 51°16.722 2°52.852 14.5806 4.64922 31.385496 -2.871232
2007-03-05 08:44:25 51°16.741 2°52.84 14.6036 4.649116 31.385895 -2.871232
2007-03-05 08:44:30 51°16.758 2°52.83 14.5947 4.648701 31.383941 -2.871232
2007-03-05 08:44:35 51°16.774 2°52.821 14.5788 4.648701 31.383941 -2.871232
2007-03-05 08:44:39 51°16.786 2°52.812 14.5847 4.648909 31.386101 -2.871232
2007-03-05 08:44:44 51°16.802 2°52.801 14.5909 4.648805 31.385317 -2.871232
2007-03-05 08:44:49 51°16.818 2°52.791 14.5977 4.648909 31.38551 -2.871232
2007-03-05 08:44:55 51°16.837 2°52.779 14.5926 4.648701 31.383941 -2.871232
2007-03-05 08:44:59 51°16.849 2°52.771 14.5955 4.648701 31.384533 -2.871232
2007-03-05 08:45:04 51°16.865 2°52.761 14.5972 4.648701 31.384533 -2.871232
2007-03-05 08:45:09 51°16.881 2°52.75 14.6012 4.648493 31.383556 -2.871232
2007-03-05 08:45:15 51°16.9 2°52.738 14.6075 4.648493 31.384148 -2.871232
2007-03-05 08:45:19 51°16.912 2°52.729 14.5975 4.648597 31.384932 -2.871232
2007-03-05 08:45:24 51°16.928 2°52.719 14.6073 4.648286 31.383171 -2.871232
2007-03-05 08:45:30 51°16.947 2°52.707 14.6002 4.64839 31.385138 -2.871232
2007-03-05 08:45:35 51°16.963 2°52.696 14.6146 4.64839 31.385138 -2.871232
2007-03-05 08:45:39 51°16.976 2°52.688 14.6094 4.648182 31.384161 -2.871232
2007-03-05 08:45:44 51°16.992 2°52.679 14.6138 4.648182 31.384753 -2.871232
2007-03-05 08:45:49 51°17.008 2°52.668 14.6373 4.648182 31.384753 -2.871232
2007-03-05 08:45:55 51°17.028 2°52.655 14.6173 4.648078 31.383969 -2.871232
2007-03-05 08:46:00 51°17.044 2°52.646 14.6199 4.647974 31.384367 -2.871232
2007-03-05 08:46:04 51°17.057 2°52.637 14.6167 4.647974 31.384367 -2.871232
2007-03-05 08:46:09 51°17.074 2°52.626 14.6299 4.647974 31.383184 -2.871232
2007-03-05 08:46:15 51°17.093 2°52.613 14.6322 4.647871 31.384175 -2.871232
2007-03-05 08:46:20 51°17.109 2°52.603 14.6168 4.647871 31.383583 -2.871232
2007-03-05 08:46:24 51°17.121 2°52.595 14.6242 4.647767 31.384574 -2.871232
2007-03-05 08:46:29 51°17.137 2°52.585 14.6312 4.647663 31.38379 -2.871232
2007-03-05 08:46:34 51°17.153 2°52.575 14.625 4.647663 31.38379 -2.871232
2007-03-05 08:46:39 51°17.169 2°52.565 14.6306 4.647663 31.38379 -2.871232
2007-03-05 08:46:45 51°17.189 2°52.553 14.6379 4.647559 31.383005 -2.871232
2007-03-05 08:46:49 51°17.202 2°52.545 14.63 4.647455 31.383404 -2.871232
2007-03-05 08:46:55 51°17.221 2°52.533 14.6373 4.647455 31.383996 -2.871232
2007-03-05 08:46:59 51°17.234 2°52.524 14.6329 4.647455 31.383996 -2.871232
2007-03-05 08:47:04 51°17.25 2°52.514 14.6392 4.647455 31.383996 -2.871232
2007-03-05 08:47:10 51°17.27 2°52.501 14.6505 4.647351 31.383803 -2.871232
2007-03-05 08:47:15 51°17.286 2°52.491 14.6574 4.647248 31.383019 -2.871232
2007-03-05 08:47:19 51°17.299 2°52.482 14.6401 4.647248 31.383611 -2.871232
2007-03-05 08:47:24 51°17.315 2°52.472 14.6416 4.64704 31.382634 -2.871232
2007-03-05 08:47:29 51°17.331 2°52.46 14.6449 4.64704 31.382634 -2.871232
2007-03-05 08:47:35 51°17.351 2°52.448 14.6484 4.64704 31.382634 -2.871232
2007-03-05 08:47:40 51°17.367 2°52.436 14.6476 4.647144 31.383418 -2.871232
2007-03-05 08:47:44 51°17.38 2°52.428 14.6546 4.646729 31.381464 -2.871232
2007-03-05 08:47:49 51°17.396 2°52.417 14.6456 4.646832 31.38284 -2.871232
2007-03-05 08:47:54 51°17.412 2°52.406 14.6621 4.646936 31.383624 -2.871232
2007-03-05 08:47:59 51°17.428 2°52.396 14.6529 4.646521 31.38167 -2.871232
2007-03-05 08:48:04 51°17.445 2°52.385 14.6562 4.646521 31.38167 -2.871232
2007-03-05 08:48:09 51°17.46 2°52.375 14.6659 4.646729 31.383239 -2.871232
2007-03-05 08:48:15 51°17.48 2°52.362 14.6614 4.646625 31.383046 -2.871232
2007-03-05 08:48:20 51°17.496 2°52.351 14.6622 4.646625 31.383046 -2.871232
2007-03-05 08:48:24 51°17.509 2°52.343 14.6529 4.646417 31.382069 -2.871232
2007-03-05 08:48:29 51°17.525 2°52.331 14.6618 4.646521 31.382854 -2.871232
2007-03-05 08:48:34 51°17.541 2°52.321 14.6625 4.646521 31.382854 -2.871232
2007-03-05 08:48:39 51°17.557 2°52.31 14.6693 4.646209 31.3805 -2.871232
2007-03-05 08:48:44 51°17.574 2°52.3 14.6597 4.646417 31.382661 -2.871232
2007-03-05 08:48:49 51°17.589 2°52.288 14.6646 4.646209 31.381684 -2.871232
2007-03-05 08:48:55 51°17.609 2°52.277 14.6673 4.646313 31.38306 -2.871232
2007-03-05 08:48:59 51°17.622 2°52.268 14.6903 4.645898 31.380514 -2.871232
2007-03-05 08:49:04 51°17.638 2°52.258 14.6625 4.645898 31.380514 -2.871232
2007-03-05 08:49:10 51°17.657 2°52.246 14.6732 4.646209 31.383459 -2.871232
2007-03-05 08:49:15 51°17.673 2°52.238 14.6599 4.645898 31.381698 -2.871232
2007-03-05 08:49:19 51°17.686 2°52.228 14.6955 4.646002 31.38189 -2.871232
2007-03-05 08:49:25 51°17.705 2°52.216 14.6697 4.645794 31.380913 -2.871232
2007-03-05 08:49:29 51°17.718 2°52.207 14.6714 4.645794 31.381505 -2.871232
2007-03-05 08:49:35 51°17.737 2°52.194 14.6836 4.645794 31.381505 -2.871232
2007-03-05 08:49:39 51°17.75 2°52.187 14.6775 4.645898 31.382881 -2.871232
2007-03-05 08:49:44 51°17.765 2°52.174 14.6838 4.645898 31.381106 -2.871232
2007-03-05 08:49:50 51°17.784 2°52.161 14.682 4.64569 31.37717 -2.871232
2007-03-05 08:49:55 51°17.8 2°52.151 14.6739 4.64569 31.37717 -2.871232
2007-03-05 08:49:59 51°17.813 2°52.142 14.7026 4.64569 31.376578 -2.871232
2007-03-05 08:50:04 51°17.829 2°52.131 14.6788 4.64569 31.376578 -2.871232
2007-03-05 08:50:09 51°17.844 2°52.119 14.6837 4.645586 31.378752 -2.871232
2007-03-05 08:50:15 51°17.863 2°52.105 14.6934 4.645483 31.380927 -2.871232
2007-03-05 08:50:19 51°17.875 2°52.095 14.7112 4.645794 31.386832 -2.871232
2007-03-05 08:50:24 51°17.892 2°52.085 14.6849 4.645275 31.385869 -2.871232
2007-03-05 08:50:29 51°17.907 2°52.072 14.6993 4.645379 31.38843 -2.871232
2007-03-05 08:50:35 51°17.925 2°52.058 14.6894 4.645379 31.38843 -2.871232
2007-03-05 08:50:40 51°17.941 2°52.047 14.685 4.645691 31.391377 -2.871232
2007-03-05 08:50:45 51°17.956 2°52.035 14.7155 4.644964 31.384699 -2.871232
2007-03-05 08:50:49 51°17.969 2°52.027 14.6846 4.645275 31.385869 -2.871232
2007-03-05 08:50:55 51°17.987 2°52.013 14.6987 4.645171 31.3839 -2.871232
2007-03-05 08:51:00 51°18.003 2°52.002 14.6928 4.645171 31.382124 -2.871232
2007-03-05 08:51:04 51°18.015 2°51.993 14.6985 4.645171 31.382124 -2.871232
2007-03-05 08:51:09 51°18.03 2°51.98 14.701 4.644964 31.378779 -2.871232
2007-03-05 08:51:14 51°18.045 2°51.968 14.7169 4.644652 31.375834 -2.871232
2007-03-05 08:51:19 51°18.06 2°51.956 14.7094 4.64486 31.377995 -2.871232
2007-03-05 08:51:25 51°18.078 2°51.941 14.7039 4.644652 31.376426 -2.871232
2007-03-05 08:51:29 51°18.091 2°51.931 14.7052 4.64486 31.37977 -2.871232
2007-03-05 08:51:34 51°18.107 2°51.92 14.7063 4.64486 31.37977 -2.871232
2007-03-05 08:51:39 51°18.122 2°51.908 14.706 4.644548 31.3786 -2.871232
2007-03-05 08:51:44 51°18.138 2°51.897 14.7047 4.644341 31.378807 -2.871232
2007-03-05 08:51:50 51°18.157 2°51.882 14.7153 4.644445 31.380775 -2.871232
2007-03-05 08:51:55 51°18.172 2°51.87 14.7193 4.644445 31.381959 -2.871232
2007-03-05 08:51:59 51°18.184 2°51.86 14.709 4.644237 31.381574 -2.871232
2007-03-05 08:52:04 51°18.2 2°51.847 14.716 4.644237 31.381574 -2.871232
2007-03-05 08:52:09 51°18.215 2°51.835 14.7171 4.644237 31.381574 -2.871232
2007-03-05 08:52:15 51°18.234 2°51.819 14.7226 4.644133 31.380789 -2.871232
2007-03-05 08:52:19 51°18.246 2°51.81 14.7304 4.644133 31.380789 -2.871232
2007-03-05 08:52:24 51°18.262 2°51.797 14.7145 4.643925 31.379812 -2.871232
2007-03-05 08:52:29 51°18.278 2°51.784 14.7229 4.644029 31.380597 -2.871232
2007-03-05 08:52:35 51°18.297 2°51.769 14.7317 4.644029 31.380597 -2.871232
2007-03-05 08:52:39 51°18.309 2°51.76 14.7282 4.643822 31.379619 -2.871232
2007-03-05 08:52:44 51°18.325 2°51.747 14.7232 4.644133 31.381973 -2.871232
2007-03-05 08:52:49 51°18.34 2°51.735 14.7292 4.64351 31.378449 -2.871232
2007-03-05 08:52:54 51°18.356 2°51.722 14.7289 4.643614 31.379826 -2.871232
2007-03-05 08:53:00 51°18.374 2°51.707 14.7301 4.643718 31.380611 -2.871232
2007-03-05 08:53:04 51°18.387 2°51.697 14.7343 4.643718 31.380611 -2.871232
2007-03-05 08:53:09 51°18.402 2°51.684 14.7281 4.643614 31.379234 -2.871232
2007-03-05 08:53:15 51°18.421 2°51.669 14.7301 4.643406 31.37944 -2.871232
2007-03-05 08:53:19 51°18.434 2°51.659 14.7324 4.643406 31.37944 -2.871232
2007-03-05 08:53:24 51°18.449 2°51.647 14.7267 4.643406 31.380625 -2.871232
2007-03-05 08:53:29 51°18.465 2°51.635 14.7368 4.643406 31.380032 -2.871232
2007-03-05 08:53:35 51°18.484 2°51.62 14.7361 4.643406 31.380032 -2.871232
2007-03-05 08:53:39 51°18.496 2°51.609 14.7424 4.643199 31.379647 -2.871232
2007-03-05 08:53:45 51°18.515 2°51.594 14.7411 4.643199 31.380239 -2.871232
2007-03-05 08:53:49 51°18.527 2°51.584 14.741 4.643199 31.380831 -2.871232
2007-03-05 08:53:54 51°18.543 2°51.572 14.7376 4.643095 31.380639 -2.871232
2007-03-05 08:53:59 51°18.558 2°51.559 14.7516 4.642887 31.379069 -2.871232
2007-03-05 08:54:04 51°18.573 2°51.547 14.7525 4.642887 31.379069 -2.871232
2007-03-05 08:54:10 51°18.589 2°51.533 14.7597 4.642887 31.379661 -2.871232
2007-03-05 08:54:15 51°18.603 2°51.521 14.746 4.642783 31.379468 -2.871232
2007-03-05 08:54:19 51°18.613 2°51.513 14.6458 4.646625 31.373581 -2.871232
2007-03-05 08:54:24 51°18.626 2°51.502 14.2441 4.650257 31.337245 -2.871232
2007-03-05 08:54:29 51°18.638 2°51.491 10.9016 4.617345 31.181955 -2.871232
2007-03-05 08:54:35 51°18.652 2°51.477 9.7326 4.617345 31.181955 -2.871232
2007-03-05 08:54:40 51°18.664 2°51.466 9.3519 3.384612 22.137537 -2.871232
2007-03-05 08:54:44 51°18.673 2°51.457 9.1178 4.387319 29.13402 -2.871232
2007-03-05 08:54:49 51°18.685 2°51.445 9.0453 4.020562 27.323794 -2.871232
2007-03-05 08:54:55 51°18.699 2°51.432 8.934 3.158702 22.63515 -2.871232
2007-03-05 08:55:00 51°18.711 2°51.422 8.8985 3.075948 23.245312 -2.871232
2007-03-05 08:55:04 51°18.719 2°51.412 8.8684 3.075948 23.245312 -2.871232
2007-03-05 08:55:09 51°18.73 2°51.401 8.8602 3.440938 28.27199 -2.871232
2007-03-05 08:55:14 51°18.741 2°51.39 8.8279 3.675138 31.452342 -2.871232
2007-03-05 08:55:19 51°18.752 2°51.379 8.8197 3.69162 32.248939 -2.871232
2007-03-05 08:55:25 51°18.765 2°51.366 8.8044 3.632158 32.015378 -2.871232
2007-03-05 08:55:29 51°18.773 2°51.358 8.792 3.675568 32.630945 -2.871232
2007-03-05 08:55:35 51°18.787 2°51.346 8.7941 3.675568 32.630945 -2.871232
2007-03-05 08:55:40 51°18.797 2°51.335 8.7781 3.624393 32.284636 -2.871232
2007-03-05 08:55:44 51°18.806 2°51.327 8.7953 3.622944 32.357782 -2.871232
2007-03-05 08:55:49 51°18.817 2°51.317 8.7819 3.660239 32.80877 -2.871232
2007-03-05 08:55:54 51°18.828 2°51.307 8.788 3.603574 32.292198 -2.871232
2007-03-05 08:55:59 51°18.838 2°51.296 8.7932 3.621496 32.512902 -2.871232
2007-03-05 08:56:05 51°18.851 2°51.284 8.7766 3.621496 32.512902 -2.871232
2007-03-05 08:56:09 51°18.859 2°51.275 8.7988 3.651539 32.836461 -2.871232
2007-03-05 08:56:15 51°18.872 2°51.263 8.7878 3.620978 32.560318 -2.871232
2007-03-05 08:56:19 51°18.88 2°51.255 8.7801 3.648224 32.847696 -2.871232
2007-03-05 08:56:24 51°18.891 2°51.244 8.7635 3.643562 32.814075 -2.871232
2007-03-05 08:56:30 51°18.903 2°51.231 8.7675 3.634032 32.725577 -2.871232
2007-03-05 08:56:35 51°18.914 2°51.221 8.7585 3.634032 32.725577 -2.871232
2007-03-05 08:56:39 51°18.922 2°51.212 8.7588 3.632063 32.711077 -2.871232
2007-03-05 08:56:44 51°18.933 2°51.201 8.769 3.60917 32.493118 -2.871232
2007-03-05 08:56:49 51°18.944 2°51.191 8.7595 3.616318 32.575053 -2.871232
2007-03-05 08:56:55 51°18.957 2°51.178 8.7639 3.640766 32.830508 -2.871232
2007-03-05 08:56:59 51°18.965 2°51.17 8.7605 3.651747 32.954686 -2.871232
2007-03-05 08:57:04 51°18.976 2°51.159 8.7518 3.651747 32.954686 -2.871232
2007-03-05 08:57:09 51°18.987 2°51.149 8.7442 3.643667 32.881455 -2.871232
2007-03-05 08:57:15 51°19 2°51.138 8.7427 3.64895 32.944134 -2.871232
2007-03-05 08:57:19 51°19.008 2°51.13 8.7361 3.628542 32.7445 -2.871232
2007-03-05 08:57:24 51°19.02 2°51.121 8.7513 3.649779 32.963861 -2.871232
2007-03-05 08:57:29 51°19.03 2°51.11 8.7428 3.629993 32.768648 -2.871232
2007-03-05 08:57:34 51°19.04 2°51.1 8.7469 3.629993 32.768648 -2.871232
2007-03-05 08:57:39 51°19.051 2°51.089 8.7342 3.637141 32.847413 -2.871232
2007-03-05 08:57:44 51°19.062 2°51.078 8.7462 3.622016 32.705128 -2.871232
2007-03-05 08:57:49 51°19.072 2°51.068 8.7427 3.640042 32.89144 -2.871232
2007-03-05 08:57:55 51°19.085 2°51.055 8.7302 3.623052 32.722502 -2.871232
2007-03-05 08:57:59 51°19.094 2°51.046 8.7266 3.607928 32.573261 -2.871232
2007-03-05 08:58:04 51°19.104 2°51.035 8.7263 3.607928 32.573261 -2.871232
2007-03-05 08:58:09 51°19.115 2°51.024 8.7292 3.625435 32.754286 -2.871232
2007-03-05 08:58:14 51°19.125 2°51.013 8.7326 3.620255 32.707484 -2.871232
2007-03-05 08:58:19 51°19.136 2°51.002 8.7286 3.641181 32.919557 -2.871232
2007-03-05 08:58:25 51°19.149 2°50.989 8.7254 3.646568 32.97813 -2.871232
2007-03-05 08:58:29 51°19.157 2°50.98 8.7293 3.653199 33.048361 -2.871232
2007-03-05 08:58:35 51°19.17 2°50.968 8.7221 3.653199 33.048361 -2.871232
2007-03-05 08:58:39 51°19.178 2°50.958 8.7378 3.652577 33.048274 -2.871232
2007-03-05 08:58:44 51°19.188 2°50.949 8.7329 3.648951 33.017065 -2.871232
2007-03-05 08:58:49 51°19.199 2°50.938 8.7348 3.646983 32.999895 -2.871232
2007-03-05 08:58:54 51°19.209 2°50.928 8.7268 3.650816 33.040241 -2.871232
2007-03-05 08:58:59 51°19.22 2°50.918 8.7208 3.644704 32.977836 -2.871232
2007-03-05 08:59:04 51°19.23 2°50.907 8.7262 3.644704 32.977836 -2.871232
2007-03-05 08:59:09 51°19.24 2°50.897 8.7258 3.64574 32.989142 -2.871232
2007-03-05 08:59:15 51°19.251 2°50.885 8.7208 3.628854 32.819245 -2.871232
2007-03-05 08:59:19 51°19.258 2°50.878 8.7205 3.622638 32.756739 -2.871232
2007-03-05 08:59:24 51°19.266 2°50.869 8.7169 3.651127 33.049542 -2.871232
2007-03-05 08:59:29 51°19.272 2°50.86 8.7169 3.636624 32.904424 -2.871232
2007-03-05 08:59:35 51°19.28 2°50.849 8.7173 3.636624 32.904424 -2.871232
2007-03-05 08:59:39 51°19.284 2°50.843 8.718 3.645118 32.992568 -2.871232
2007-03-05 08:59:44 51°19.289 2°50.835 8.7302 3.642011 32.966558 -2.871232
2007-03-05 08:59:49 51°19.293 2°50.828 8.7339 3.645533 33.003785 -2.871232
2007-03-05 08:59:54 51°19.296 2°50.823 8.7381 3.622949 32.78085 -2.871232
2007-03-05 08:59:59 51°19.298 2°50.818 8.7252 3.646465 33.021107 -2.871232
2007-03-05 09:00:04 51°19.3 2°50.814 8.7431 3.646465 33.021107 -2.871232
2007-03-05 09:00:09 51°19.301 2°50.81 8.7409 3.624607 32.801906 -2.871232
2007-03-05 09:00:15 51°19.302 2°50.807 8.7432 3.639421 32.949278 -2.871232
2007-03-05 09:00:19 51°19.303 2°50.805 8.7376 3.639524 32.947682 -2.871232
2007-03-05 09:00:24 51°19.304 2°50.803 8.7291 3.637763 32.927314 -2.871232
2007-03-05 09:00:30 51°19.304 2°50.802 8.736 3.623156 32.77856 -2.871232
2007-03-05 09:00:35 51°19.304 2°50.801 8.7325 3.623156 32.77856 -2.871232
2007-03-05 09:00:39 51°19.304 2°50.802 8.7373 3.62844 32.829089 -2.871232
2007-03-05 09:00:45 51°19.304 2°50.801 8.7292 3.648744 33.032602 -2.871232
2007-03-05 09:00:49 51°19.304 2°50.802 8.7342 3.636002 32.903437 -2.871232
2007-03-05 09:00:55 51°19.304 2°50.802 8.7273 3.645637 33.003948 -2.871232
2007-03-05 09:00:59 51°19.304 2°50.802 8.7252 3.643357 32.982759 -2.871232
2007-03-05 09:01:04 51°19.304 2°50.802 8.7208 3.643357 32.982759 -2.871232
2007-03-05 09:01:10 51°19.304 2°50.802 8.725 3.636831 32.917927 -2.871232
2007-03-05 09:01:15 51°19.304 2°50.803 8.7313 3.639214 32.940157 -2.871232
2007-03-05 09:01:19 51°19.304 2°50.803 8.7227 3.639835 32.950812 -2.871232
2007-03-05 09:01:24 51°19.304 2°50.803 8.7261 3.641182 32.969653 -2.871232
2007-03-05 09:01:29 51°19.304 2°50.804 8.7251 3.647812 33.03732 -2.871232
2007-03-05 09:01:35 51°19.304 2°50.805 8.7299 3.647812 33.03732 -2.871232
2007-03-05 09:01:39 51°19.303 2°50.805 8.7223 3.643565 32.999819 -2.871232
2007-03-05 09:01:44 51°19.303 2°50.806 8.7275 3.640664 32.970599 -2.871232
2007-03-05 09:01:49 51°19.303 2°50.808 8.7259 3.635795 32.921559 -2.871232
2007-03-05 09:01:55 51°19.302 2°50.808 8.7321 3.634448 32.909754 -2.871232
2007-03-05 09:02:00 51°19.302 2°50.809 8.7363 3.609793 32.661594 -2.871232
2007-03-05 09:02:04 51°19.302 2°50.811 8.7234 3.609793 32.661594 -2.871232
2007-03-05 09:02:09 51°19.301 2°50.812 8.7207 3.626472 32.82856 -2.871232
2007-03-05 09:02:14 51°19.3 2°50.812 8.7236 3.641596 32.982633 -2.871232
2007-03-05 09:02:20 51°19.3 2°50.814 8.7224 3.638903 32.954619 -2.871232
2007-03-05 09:02:25 51°19.299 2°50.815 8.7199 3.627818 32.842994 -2.871232
2007-03-05 09:02:29 51°19.299 2°50.815 8.7202 3.631962 32.884717 -2.871232
2007-03-05 09:02:34 51°19.298 2°50.816 8.718 3.631962 32.884717 -2.871232
2007-03-05 09:02:39 51°19.298 2°50.817 8.7184 3.633309 32.900914 -2.871232
2007-03-05 09:02:45 51°19.297 2°50.817 8.7162 3.64429 33.01506 -2.871232
2007-03-05 09:02:50 51°19.296 2°50.818 8.7172 3.63362 32.908438 -2.871232
2007-03-05 09:02:55 51°19.295 2°50.819 8.7195 3.623675 32.810041 -2.871232
2007-03-05 09:02:59 51°19.295 2°50.82 8.7192 3.632584 32.901519 -2.871232
2007-03-05 09:03:04 51°19.294 2°50.82 8.7193 3.632584 32.901519 -2.871232
2007-03-05 09:03:09 51°19.293 2°50.82 8.7198 3.598813 32.561593 -2.871232
2007-03-05 09:03:15 51°19.293 2°50.821 8.7122 3.60275 32.603802 -2.871232
2007-03-05 09:03:19 51°19.292 2°50.822 8.7173 3.620774 32.786968 -2.871232
2007-03-05 09:03:24 51°19.291 2°50.822 8.7113 3.646777 33.047178 -2.871232
2007-03-05 09:03:30 51°19.29 2°50.823 8.7146 3.634656 32.925909 -2.871232
2007-03-05 09:03:35 51°19.29 2°50.823 8.7173 3.634656 32.925909 -2.871232
2007-03-05 09:03:39 51°19.29 2°50.824 8.7114 3.634967 32.92904 -2.871232
2007-03-05 09:03:44 51°19.289 2°50.824 8.7085 3.613212 32.712583 -2.871232
2007-03-05 09:03:49 51°19.288 2°50.824 8.7117 3.604821 32.629004 -2.871232
2007-03-05 09:03:55 51°19.287 2°50.825 8.714 3.603268 32.61424 -2.871232
2007-03-05 09:03:59 51°19.287 2°50.825 8.7084 3.639732 32.981464 -2.871232
2007-03-05 09:04:04 51°19.286 2°50.825 8.7075 3.639732 32.981464 -2.871232
2007-03-05 09:04:09 51°19.285 2°50.825 8.7149 3.644912 33.03456 -2.871232
2007-03-05 09:04:15 51°19.284 2°50.826 8.7015 3.64025 32.98933 -2.871232
2007-03-05 09:04:20 51°19.284 2°50.826 8.7011 3.633413 32.92218 -2.871232
2007-03-05 09:04:24 51°19.283 2°50.826 8.6991 3.645533 33.043475 -2.871232
2007-03-05 09:04:29 51°19.283 2°50.827 8.7002 3.615284 32.740438 -2.871232
2007-03-05 09:04:34 51°19.282 2°50.828 8.7034 3.615284 32.740438 -2.871232
2007-03-05 09:04:39 51°19.282 2°50.828 8.6949 3.635174 32.94345 -2.871232
2007-03-05 09:04:44 51°19.281 2°50.828 8.6941 3.630823 32.8996 -2.871232
2007-03-05 09:04:49 51°19.281 2°50.828 8.6957 3.649263 33.08904 -2.871232
2007-03-05 09:04:55 51°19.28 2°50.829 8.6971 3.650403 33.102305 -2.871232
2007-03-05 09:04:59 51°19.279 2°50.829 8.7001 3.655065 33.148451 -2.871232
2007-03-05 09:05:04 51°19.279 2°50.829 8.7009 3.655065 33.148451 -2.871232
2007-03-05 09:05:10 51°19.278 2°50.83 8.7044 3.647398 33.068464 -2.871232
2007-03-05 09:05:15 51°19.278 2°50.83 8.7088 3.64543 33.05038 -2.871232
2007-03-05 09:05:19 51°19.277 2°50.83 8.7018 3.653407 33.132614 -2.871232
2007-03-05 09:05:25 51°19.276 2°50.831 8.7026 3.646673 33.065569 -2.871232
2007-03-05 09:05:29 51°19.275 2°50.831 8.7057 3.640147 32.998868 -2.871232
2007-03-05 09:05:35 51°19.275 2°50.831 8.7099 3.640147 32.998868 -2.871232
2007-03-05 09:05:39 51°19.275 2°50.832 8.7103 3.647606 33.072321 -2.871232
2007-03-05 09:05:44 51°19.274 2°50.832 8.7068 3.642322 33.017274 -2.871232
2007-03-05 09:05:49 51°19.273 2°50.832 8.7056 3.638593 32.97791 -2.871232
2007-03-05 09:05:54 51°19.273 2°50.832 8.7096 3.642218 33.015347 -2.871232
2007-03-05 09:05:59 51°19.272 2°50.832 8.7073 3.644394 33.037283 -2.871232
2007-03-05 09:06:04 51°19.272 2°50.833 8.7161 3.644394 33.037283 -2.871232
2007-03-05 09:06:09 51°19.271 2°50.833 8.705 3.639732 32.989398 -2.871232
2007-03-05 09:06:15 51°19.27 2°50.833 8.7097 3.641597 33.006433 -2.871232
2007-03-05 09:06:19 51°19.27 2°50.833 8.7095 3.636313 32.954936 -2.871232
2007-03-05 09:06:24 51°19.27 2°50.834 8.7074 3.638282 32.974777 -2.871232
2007-03-05 09:06:29 51°19.269 2°50.834 8.7075 3.637453 32.964661 -2.871232
2007-03-05 09:06:35 51°19.269 2°50.834 8.713 3.637453 32.964661 -2.871232
2007-03-05 09:06:40 51°19.268 2°50.835 8.7124 3.6417 33.007478 -2.871232
2007-03-05 09:06:44 51°19.268 2°50.835 8.7088 3.636728 32.959113 -2.871232
2007-03-05 09:06:49 51°19.267 2°50.835 8.7077 3.637453 32.965542 -2.871232
2007-03-05 09:06:54 51°19.267 2°50.836 8.7158 3.640561 32.996871 -2.871232
2007-03-05 09:06:59 51°19.266 2°50.836 8.7102 3.634345 32.934217 -2.871232
2007-03-05 09:07:04 51°19.266 2°50.837 8.706 3.634345 32.934217 -2.871232
2007-03-05 09:07:09 51°19.265 2°50.837 8.7096 3.640043 32.990768 -2.871232
2007-03-05 09:07:15 51°19.264 2°50.838 8.7138 3.637453 32.964661 -2.871232
2007-03-05 09:07:19 51°19.264 2°50.838 8.7083 3.640768 32.99896 -2.871232
2007-03-05 09:07:24 51°19.263 2°50.838 8.711 3.63362 32.926908 -2.871232
2007-03-05 09:07:30 51°19.263 2°50.839 8.7141 3.640561 32.996871 -2.871232
2007-03-05 09:07:35 51°19.262 2°50.84 8.7116 3.640561 32.996871 -2.871232
2007-03-05 09:07:39 51°19.262 2°50.84 8.7082 3.639525 32.986428 -2.871232
2007-03-05 09:07:44 51°19.261 2°50.841 8.7123 3.642944 33.020011 -2.871232
2007-03-05 09:07:50 51°19.261 2°50.841 8.7135 3.641493 33.005389 -2.871232
2007-03-05 09:07:55 51°19.261 2°50.843 8.7128 3.622328 32.814012 -2.871232
2007-03-05 09:07:59 51°19.26 2°50.842 8.7165 3.636728 32.959113 -2.871232
2007-03-05 09:08:04 51°19.26 2°50.843 8.7127 3.636728 32.959113 -2.871232
2007-03-05 09:08:09 51°19.259 2°50.844 8.7176 3.635278 32.947136 -2.871232
2007-03-05 09:08:15 51°19.259 2°50.844 8.7148 3.627197 32.865699 -2.871232
2007-03-05 09:08:20 51°19.258 2°50.845 8.7147 3.635277 32.945375 -2.871232
2007-03-05 09:08:24 51°19.257 2°50.844 8.7146 3.625229 32.843233 -2.871232
2007-03-05 09:08:29 51°19.257 2°50.845 8.7192 3.641286 33.004182 -2.871232
2007-03-05 09:08:35 51°19.256 2°50.846 8.7155 3.641286 33.004182 -2.871232
2007-03-05 09:08:39 51°19.255 2°50.846 8.7133 3.621603 32.805831 -2.871232
2007-03-05 09:08:45 51°19.255 2°50.846 8.7172 3.624193 32.831919 -2.871232
2007-03-05 09:08:49 51°19.255 2°50.847 8.7148 3.639007 32.980324 -2.871232
2007-03-05 09:08:55 51°19.254 2°50.848 8.7137 3.639214 32.982413 -2.871232
2007-03-05 09:09:00 51°19.253 2°50.848 8.7104 3.642529 33.015833 -2.871232
2007-03-05 09:09:04 51°19.253 2°50.848 8.7138 3.642529 33.015833 -2.871232
2007-03-05 09:09:09 51°19.252 2°50.849 8.7085 3.643772 33.02925 -2.871232
2007-03-05 09:09:14 51°19.251 2°50.85 8.7109 3.6388 32.979117 -2.871232
2007-03-05 09:09:19 51°19.251 2°50.85 8.7186 3.6388 32.979117 -2.871232
2007-03-05 09:09:25 51°19.25 2°50.849 8.7125 3.641079 33.002975 -2.871232
2007-03-05 09:09:29 51°19.25 2°50.85 8.7212 3.6388 32.98088 -2.871232
2007-03-05 09:09:35 51°19.249 2°50.851 8.7174 3.6388 32.98088 -2.871232
2007-03-05 09:09:39 51°19.248 2°50.851 8.7133 3.625747 32.850208 -2.871232
2007-03-05 09:09:44 51°19.248 2°50.851 8.7211 3.643772 33.032781 -2.871232
2007-03-05 09:09:50 51°19.247 2°50.852 8.7191 3.644187 33.035194 -2.871232
2007-03-05 09:09:55 51°19.246 2°50.853 8.717 3.637349 32.963616 -2.871232
2007-03-05 09:09:59 51°19.246 2°50.853 8.7125 3.643772 33.028367 -2.871232
2007-03-05 09:10:04 51°19.245 2°50.854 8.7118 3.643772 33.028367 -2.871232
2007-03-05 09:10:10 51°19.244 2°50.855 8.713 3.641182 33.002256 -2.871232
2007-03-05 09:10:15 51°19.244 2°50.855 8.7188 3.647709 33.068062 -2.871232
2007-03-05 09:10:19 51°19.243 2°50.855 8.7189 3.646155 33.052392 -2.871232
2007-03-05 09:10:24 51°19.242 2°50.856 8.7132 3.645016 33.041785 -2.871232
2007-03-05 09:10:29 51°19.242 2°50.856 8.7166 3.645948 33.05207 -2.871232
2007-03-05 09:10:35 51°19.241 2°50.856 8.717 3.645948 33.05207 -2.871232
2007-03-05 09:10:39 51°19.241 2°50.857 8.7211 3.64543 33.048613 -2.871232
2007-03-05 09:10:44 51°19.24 2°50.858 8.7126 3.64429 33.038005 -2.871232
2007-03-05 09:10:49 51°19.239 2°50.858 8.7224 3.642426 33.018319 -2.871232
2007-03-05 09:10:55 51°19.239 2°50.859 8.7169 3.647916 33.072804 -2.871232
2007-03-05 09:10:59 51°19.238 2°50.859 8.7151 3.638593 32.978792 -2.871232
2007-03-05 09:11:04 51°19.238 2°50.86 8.7176 3.638593 32.978792 -2.871232
2007-03-05 09:11:09 51°19.237 2°50.86 8.7112 3.646259 33.056971 -2.871232
2007-03-05 09:11:15 51°19.237 2°50.86 8.7147 3.644601 33.041139 -2.871232
2007-03-05 09:11:20 51°19.236 2°50.861 8.71 3.6417 33.012772 -2.871232
2007-03-05 09:11:24 51°19.236 2°50.862 8.7188 3.634863 32.94384 -2.871232
2007-03-05 09:11:30 51°19.235 2°50.862 8.7145 3.641286 33.008593 -2.871232
2007-03-05 09:11:35 51°19.234 2°50.862 8.7153 3.641286 33.008593 -2.871232
2007-03-05 09:11:39 51°19.234 2°50.863 8.71 3.643876 33.035592 -2.871232
2007-03-05 09:11:45 51°19.233 2°50.864 8.7145 3.639629 32.994527 -2.871232
2007-03-05 09:11:49 51°19.233 2°50.864 8.7141 3.642426 33.022732 -2.871232
2007-03-05 09:11:55 51°19.232 2°50.864 8.715 3.643565 33.034224 -2.871232
2007-03-05 09:11:59 51°19.232 2°50.865 8.7162 3.64429 33.041538 -2.871232
2007-03-05 09:12:05 51°19.231 2°50.865 8.7062 3.64429 33.041538 -2.871232
2007-03-05 09:12:09 51°19.23 2°50.865 8.719 3.642218 33.020643 -2.871232
2007-03-05 09:12:14 51°19.23 2°50.865 8.7188 3.641183 33.011079 -2.871232
2007-03-05 09:12:19 51°19.23 2°50.867 8.7166 3.629891 32.897238 -2.871232
2007-03-05 09:12:24 51°19.229 2°50.868 8.7105 3.637453 32.973473 -2.871232
2007-03-05 09:12:30 51°19.228 2°50.868 8.7135 3.642219 33.022408 -2.871232
2007-03-05 09:12:35 51°19.227 2°50.868 8.7152 3.642219 33.022408 -2.871232
2007-03-05 09:12:39 51°19.227 2°50.869 8.7156 3.640561 33.006575 -2.871232
2007-03-05 09:12:44 51°19.226 2°50.869 8.7143 3.642322 33.02257 -2.871232
2007-03-05 09:12:49 51°19.226 2°50.87 8.7167 3.644394 33.042583 -2.871232
2007-03-05 09:12:55 51°19.225 2°50.87 8.7158 3.642218 33.020643 -2.871232
2007-03-05 09:12:59 51°19.224 2°50.871 8.7146 3.644394 33.042583 -2.871232
2007-03-05 09:13:04 51°19.223 2°50.871 8.7138 3.644394 33.042583 -2.871232
2007-03-05 09:13:09 51°19.223 2°50.872 8.7132 3.643772 33.036314 -2.871232
2007-03-05 09:13:14 51°19.222 2°50.872 8.7118 3.638385 32.982874 -2.871232
2007-03-05 09:13:19 51°19.221 2°50.873 8.7134 3.645948 33.059139 -2.871232
2007-03-05 09:13:24 51°19.221 2°50.874 8.712 3.639629 32.996291 -2.871232
2007-03-05 09:13:29 51°19.22 2°50.874 8.7099 3.642426 33.024498 -2.871232
2007-03-05 09:13:35 51°19.219 2°50.875 8.7163 3.642426 33.024498 -2.871232
2007-03-05 09:13:40 51°19.219 2°50.876 8.7134 3.645534 33.055843 -2.871232
2007-03-05 09:13:44 51°19.218 2°50.875 8.7142 3.640457 33.006413 -2.871232
2007-03-05 09:13:50 51°19.217 2°50.877 8.7117 3.64543 33.056566 -2.871232
2007-03-05 09:13:55 51°19.216 2°50.877 8.7154 3.641804 33.020878 -2.871232
2007-03-05 09:13:59 51°19.216 2°50.877 8.712 3.640768 33.011312 -2.871232
2007-03-05 09:14:05 51°19.215 2°50.878 8.7197 3.640768 33.011312 -2.871232
2007-03-05 09:14:09 51°19.214 2°50.879 8.7129 3.630512 32.907022 -2.871232
2007-03-05 09:14:15 51°19.214 2°50.88 8.7122 3.647398 33.076421 -2.871232
2007-03-05 09:14:19 51°19.213 2°50.88 8.713 3.65061 33.10882 -2.871232
2007-03-05 09:14:24 51°19.212 2°50.881 8.7171 3.651957 33.121523 -2.871232
2007-03-05 09:14:30 51°19.212 2°50.881 8.7119 3.652682 33.130612 -2.871232
2007-03-05 09:14:35 51°19.212 2°50.881 8.7121 3.652682 33.130612 -2.871232
2007-03-05 09:14:39 51°19.212 2°50.88 8.7108 3.654029 33.144202 -2.871232
2007-03-05 09:14:44 51°19.213 2°50.88 8.7155 3.653822 33.142997 -2.871232
2007-03-05 09:14:50 51°19.214 2°50.879 8.712 3.65206 33.126997 -2.871232
2007-03-05 09:14:55 51°19.215 2°50.878 8.7111 3.654029 33.145974 -2.871232
2007-03-05 09:14:59 51°19.217 2°50.877 8.7101 3.651024 33.115658 -2.871232
2007-03-05 09:15:04 51°19.219 2°50.876 8.7145 3.651024 33.115658 -2.871232
2007-03-05 09:15:09 51°19.222 2°50.873 8.7144 3.653511 33.140747 -2.871232
2007-03-05 09:15:15 51°19.227 2°50.871 8.7155 3.652682 33.132383 -2.871232
2007-03-05 09:15:20 51°19.23 2°50.868 8.7152 3.654132 33.14702 -2.871232
2007-03-05 09:15:24 51°19.233 2°50.867 8.7138 3.653614 33.142679 -2.871232
2007-03-05 09:15:29 51°19.238 2°50.865 8.7149 3.654132 33.148792 -2.871232
2007-03-05 09:15:35 51°19.243 2°50.864 8.7142 3.654132 33.148792 -2.871232
2007-03-05 09:15:40 51°19.248 2°50.865 8.7135 3.651853 33.124906 -2.871232
2007-03-05 09:15:45 51°19.253 2°50.866 8.7128 3.654236 33.148951 -2.871232
2007-03-05 09:15:49 51°19.257 2°50.868 8.7168 3.653925 33.144929 -2.871232
2007-03-05 09:15:54 51°19.262 2°50.871 8.7181 3.651646 33.12193 -2.871232
2007-03-05 09:15:59 51°19.267 2°50.873 8.7161 3.653925 33.143156 -2.871232
2007-03-05 09:16:05 51°19.273 2°50.878 8.7166 3.653925 33.143156 -2.871232
2007-03-05 09:16:10 51°19.279 2°50.882 8.7186 3.652268 33.125545 -2.871232
2007-03-05 09:16:15 51°19.284 2°50.886 8.7195 3.653614 33.14002 -2.871232
2007-03-05 09:16:19 51°19.288 2°50.891 8.7195 3.655272 33.157633 -2.871232
2007-03-05 09:16:25 51°19.294 2°50.898 8.7162 3.654547 33.150315 -2.871232
2007-03-05 09:16:29 51°19.299 2°50.902 8.7203 3.653407 33.137043 -2.871232
2007-03-05 09:16:35 51°19.304 2°50.91 8.7179 3.653407 33.137043 -2.871232
2007-03-05 09:16:39 51°19.308 2°50.916 8.7243 3.654339 33.145565 -2.871232
2007-03-05 09:16:44 51°19.312 2°50.923 8.7196 3.656722 33.168723 -2.871232
2007-03-05 09:16:50 51°19.317 2°50.934 8.7246 3.654961 33.150065 -2.871232
2007-03-05 09:16:55 51°19.321 2°50.941 8.7178 3.651749 33.118547 -2.871232
2007-03-05 09:16:59 51°19.324 2°50.949 8.7208 3.654547 33.145884 -2.871232
2007-03-05 09:17:04 51°19.329 2°50.956 8.7223 3.654547 33.145884 -2.871232
2007-03-05 09:17:10 51°19.332 2°50.967 8.7236 3.65465 33.146929 -2.871232
2007-03-05 09:17:15 51°19.336 2°50.976 8.7258 3.655893 33.158587 -2.871232
2007-03-05 09:17:19 51°19.34 2°50.983 8.7239 3.65724 33.17129 -2.871232
2007-03-05 09:17:24 51°19.343 2°50.991 8.7223 3.654961 33.148292 -2.871232
2007-03-05 09:17:29 51°19.347 2°51 8.7234 3.654961 33.148292 -2.871232
2007-03-05 09:17:35 51°19.351 2°51.011 8.7222 3.654961 33.148292 -2.871232
2007-03-05 09:17:40 51°19.355 2°51.018 8.7237 3.656722 33.165176 -2.871232
2007-03-05 09:17:44 51°19.358 2°51.026 8.7229 3.658173 33.179812 -2.871232
2007-03-05 09:17:49 51°19.361 2°51.033 8.7225 3.657447 33.17072 -2.871232
2007-03-05 09:17:54 51°19.365 2°51.041 8.7249 3.654547 33.142339 -2.871232
2007-03-05 09:17:59 51°19.367 2°51.048 8.7226 3.658483 33.182948 -2.871232
2007-03-05 09:18:04 51°19.371 2°51.056 8.7275 3.658483 33.182948 -2.871232
2007-03-05 09:18:09 51°19.373 2°51.063 8.7257 3.657447 33.171607 -2.871232
2007-03-05 09:18:15 51°19.377 2°51.071 8.7252 3.659105 33.187446 -2.871232
2007-03-05 09:18:20 51°19.38 2°51.078 8.7202 3.659001 33.186401 -2.871232
2007-03-05 09:18:24 51°19.382 2°51.084 8.7201 3.659623 33.191786 -2.871232
2007-03-05 09:18:30 51°19.386 2°51.092 8.7207 3.653925 33.135182 -2.871232
2007-03-05 09:18:35 51°19.389 2°51.098 8.7209 3.653925 33.135182 -2.871232
2007-03-05 09:18:39 51°19.391 2°51.103 8.7223 3.657137 33.166698 -2.871232
2007-03-05 09:18:44 51°19.394 2°51.109 8.7241 3.657965 33.17506 -2.871232
2007-03-05 09:18:50 51°19.397 2°51.117 8.7252 3.654961 33.145634 -2.871232
2007-03-05 09:18:55 51°19.399 2°51.124 8.7256 3.658069 33.177879 -2.871232
2007-03-05 09:18:59 51°19.402 2°51.128 8.7253 3.658173 33.179812 -2.871232
2007-03-05 09:19:05 51°19.405 2°51.136 8.7204 3.658173 33.179812 -2.871232
2007-03-05 09:19:09 51°19.407 2°51.141 8.7236 3.658898 33.18713 -2.871232
2007-03-05 09:19:15 51°19.41 2°51.149 8.7226 3.660348 33.201766 -2.871232
2007-03-05 09:19:20 51°19.412 2°51.156 8.7259 3.656619 33.162358 -2.871232
2007-03-05 09:19:24 51°19.415 2°51.16 8.7254 3.657965 33.17506 -2.871232
2007-03-05 09:19:29 51°19.417 2°51.167 8.7222 3.654443 33.139522 -2.871232
2007-03-05 09:19:35 51°19.42 2°51.175 8.7244 3.654443 33.139522 -2.871232
2007-03-05 09:19:39 51°19.422 2°51.18 8.7249 3.658898 33.185355 -2.871232
2007-03-05 09:19:45 51°19.425 2°51.187 8.7232 3.656204 33.158177 -2.871232
2007-03-05 09:19:50 51°19.428 2°51.194 8.7259 3.659934 33.194922 -2.871232
2007-03-05 09:19:55 51°19.43 2°51.2 8.7234 3.657655 33.171924 -2.871232
2007-03-05 09:20:00 51°19.433 2°51.207 8.7218 3.656101 33.156245 -2.871232
2007-03-05 09:20:04 51°19.435 2°51.211 8.7238 3.656101 33.156245 -2.871232
2007-03-05 09:20:09 51°19.438 2°51.218 8.7234 3.659416 33.190582 -2.871232
2007-03-05 09:20:14 51°19.44 2°51.224 8.7223 3.658276 33.179083 -2.871232
2007-03-05 09:20:19 51°19.443 2°51.23 8.7212 3.659416 33.190582 -2.871232
2007-03-05 09:20:24 51°19.446 2°51.237 8.7239 3.656101 33.158018 -2.871232
2007-03-05 09:20:29 51°19.448 2°51.243 8.7209 3.65724 33.169516 -2.871232
2007-03-05 09:20:35 51°19.451 2°51.251 8.721 3.65724 33.169516 -2.871232
2007-03-05 09:20:39 51°19.453 2°51.255 8.721 3.655272 33.149656 -2.871232
2007-03-05 09:20:44 51°19.455 2°51.262 8.7212 3.657965 33.177721 -2.871232
2007-03-05 09:20:50 51°19.459 2°51.269 8.7212 3.659105 33.188333 -2.871232
2007-03-05 09:20:55 51°19.46 2°51.275 8.7226 3.658587 33.183106 -2.871232
2007-03-05 09:20:59 51°19.463 2°51.28 8.722 3.659105 33.18922 -2.871232
2007-03-05 09:21:04 51°19.465 2°51.286 8.7217 3.659105 33.18922 -2.871232
2007-03-05 09:21:10 51°19.467 2°51.294 8.7191 3.657655 33.174585 -2.871232
2007-03-05 09:21:15 51°19.47 2°51.3 8.7228 3.659623 33.194448 -2.871232
2007-03-05 09:21:19 51°19.472 2°51.304 8.7238 3.65983 33.196539 -2.871232
2007-03-05 09:21:24 51°19.474 2°51.311 8.7217 3.658276 33.180857 -2.871232
2007-03-05 09:21:29 51°19.477 2°51.316 8.722 3.659727 33.195493 -2.871232
2007-03-05 09:21:35 51°19.48 2°51.324 8.7189 3.659727 33.195493 -2.871232
2007-03-05 09:21:39 51°19.482 2°51.328 8.7205 3.659519 33.193402 -2.871232
2007-03-05 09:21:44 51°19.484 2°51.334 8.7192 3.657447 33.174268 -2.871232
2007-03-05 09:21:50 51°19.487 2°51.341 8.7208 3.658794 33.186971 -2.871232
2007-03-05 09:21:55 51°19.489 2°51.348 8.722 3.658898 33.18713 -2.871232
2007-03-05 09:21:59 51°19.491 2°51.352 8.721 3.652785 33.126342 -2.871232
2007-03-05 09:22:04 51°19.494 2°51.358 8.7191 3.652785 33.126342 -2.871232
2007-03-05 09:22:09 51°19.496 2°51.365 8.72 3.658794 33.187859 -2.871232
2007-03-05 09:22:15 51°19.499 2°51.372 8.7211 3.658691 33.186813 -2.871232
2007-03-05 09:22:20 51°19.501 2°51.378 8.7189 3.657965 33.180382 -2.871232
2007-03-05 09:22:24 51°19.503 2°51.383 8.7184 3.658587 33.185768 -2.871232
2007-03-05 09:22:30 51°19.506 2°51.39 8.7213 3.654029 33.139771 -2.871232
2007-03-05 09:22:35 51°19.508 2°51.396 8.7206 3.654029 33.139771 -2.871232
2007-03-05 09:22:40 51°19.511 2°51.402 8.7187 3.656308 33.163655 -2.871232
2007-03-05 09:22:44 51°19.512 2°51.407 8.7186 3.652889 33.129159 -2.871232
2007-03-05 09:22:49 51°19.515 2°51.413 8.7201 3.659001 33.190837 -2.871232
2007-03-05 09:22:55 51°19.517 2°51.42 8.7177 3.652785 33.128114 -2.871232
2007-03-05 09:22:59 51°19.519 2°51.425 8.7198 3.657655 33.178132 -2.871232
2007-03-05 09:23:05 51°19.522 2°51.432 8.7188 3.657655 33.178132 -2.871232
2007-03-05 09:23:09 51°19.524 2°51.437 8.7191 3.658587 33.186655 -2.871232
2007-03-05 09:23:14 51°19.526 2°51.444 8.7181 3.657033 33.170973 -2.871232
2007-03-05 09:23:19 51°19.529 2°51.449 8.7183 3.657137 33.172018 -2.871232
2007-03-05 09:23:25 51°19.531 2°51.457 8.7178 3.659105 33.19277 -2.871232
2007-03-05 09:23:30 51°19.533 2°51.464 8.7188 3.658173 33.18336 -2.871232
2007-03-05 09:23:35 51°19.536 2°51.469 8.7174 3.658173 33.18336 -2.871232
2007-03-05 09:23:39 51°19.538 2°51.475 8.7159 3.656515 33.166632 -2.871232
2007-03-05 09:23:45 51°19.541 2°51.483 8.7194 3.659312 33.194861 -2.871232
2007-03-05 09:23:49 51°19.543 2°51.487 8.7186 3.659623 33.198886 -2.871232
2007-03-05 09:23:55 51°19.546 2°51.495 8.7175 3.659416 33.196794 -2.871232
2007-03-05 09:24:00 51°19.548 2°51.502 8.7186 3.65983 33.200977 -2.871232
2007-03-05 09:24:04 51°19.55 2°51.507 8.7174 3.65983 33.200977 -2.871232
2007-03-05 09:24:09 51°19.552 2°51.514 8.7202 3.659105 33.19277 -2.871232
2007-03-05 09:24:15 51°19.555 2°51.521 8.7182 3.659001 33.191724 -2.871232
2007-03-05 09:24:20 51°19.558 2°51.527 8.7164 3.656826 33.169769 -2.871232
2007-03-05 09:24:24 51°19.559 2°51.533 8.7181 3.661592 33.217865 -2.871232
2007-03-05 09:24:29 51°19.562 2°51.539 8.7168 3.660659 33.209342 -2.871232
2007-03-05 09:24:35 51°19.565 2°51.547 8.7178 3.660659 33.209342 -2.871232
2007-03-05 09:24:40 51°19.567 2°51.553 8.7168 3.657344 33.175883 -2.871232
2007-03-05 09:24:45 51°19.569 2°51.559 8.7186 3.659416 33.196794 -2.871232
2007-03-05 09:24:49 51°19.571 2°51.565 8.7165 3.65983 33.200977 -2.871232
2007-03-05 09:24:55 51°19.575 2°51.572 8.7171 3.656929 33.172588 -2.871232
2007-03-05 09:25:00 51°19.577 2°51.578 8.7168 3.658173 33.185135 -2.871232
2007-03-05 09:25:04 51°19.579 2°51.583 8.7178 3.658173 33.185135 -2.871232
2007-03-05 09:25:09 51°19.581 2°51.589 8.7168 3.658173 33.185135 -2.871232
2007-03-05 09:25:15 51°19.584 2°51.597 8.7182 3.657965 33.183043 -2.871232
2007-03-05 09:25:20 51°19.587 2°51.603 8.7156 3.659002 33.194387 -2.871232
2007-03-05 09:25:25 51°19.59 2°51.61 8.7161 3.655168 33.155701 -2.871232
2007-03-05 09:25:29 51°19.591 2°51.615 8.7181 3.659934 33.203798 -2.871232
2007-03-05 09:25:35 51°19.594 2°51.622 8.717 3.659934 33.203798 -2.871232
2007-03-05 09:25:39 51°19.596 2°51.628 8.717 3.648849 33.091937 -2.871232
2007-03-05 09:25:44 51°19.598 2°51.634 8.7164 3.655583 33.159883 -2.871232
2007-03-05 09:25:50 51°19.601 2°51.641 8.7186 3.659209 33.197366 -2.871232
2007-03-05 09:25:55 51°19.603 2°51.647 8.7186 3.660038 33.205732 -2.871232
2007-03-05 09:25:59 51°19.605 2°51.652 8.7188 3.659312 33.198412 -2.871232
2007-03-05 09:26:05 51°19.608 2°51.66 8.7194 3.659312 33.198412 -2.871232
2007-03-05 09:26:10 51°19.611 2°51.666 8.717 3.660245 33.206935 -2.871232
2007-03-05 09:26:15 51°19.614 2°51.672 8.7192 3.661902 33.223667 -2.871232
2007-03-05 09:26:20 51°19.616 2°51.678 8.7167 3.660556 33.210072 -2.871232
2007-03-05 09:26:24 51°19.618 2°51.682 8.7146 3.657448 33.178703 -2.871232
2007-03-05 09:26:29 51°19.621 2°51.688 8.7162 3.658691 33.19125 -2.871232
2007-03-05 09:26:35 51°19.623 2°51.696 8.7176 3.658691 33.19125 -2.871232
2007-03-05 09:26:39 51°19.626 2°51.7 8.7154 3.657655 33.180794 -2.871232
2007-03-05 09:26:44 51°19.629 2°51.706 8.7176 3.656308 33.167202 -2.871232
2007-03-05 09:26:49 51°19.631 2°51.712 8.7174 3.647916 33.082531 -2.871232
2007-03-05 09:26:55 51°19.635 2°51.719 8.7172 3.652993 33.134634 -2.871232
2007-03-05 09:27:00 51°19.637 2°51.725 8.7177 3.658587 33.191092 -2.871232
2007-03-05 09:27:04 51°19.639 2°51.73 8.7162 3.658587 33.191092 -2.871232
2007-03-05 09:27:09 51°19.641 2°51.736 8.7161 3.659934 33.204686 -2.871232
2007-03-05 09:27:15 51°19.645 2°51.743 8.7175 3.659312 33.199299 -2.871232
2007-03-05 09:27:20 51°19.648 2°51.748 8.716 3.659312 33.198412 -2.871232
2007-03-05 09:27:24 51°19.649 2°51.753 8.7157 3.65952 33.200503 -2.871232
2007-03-05 09:27:29 51°19.652 2°51.759 8.7155 3.660556 33.21096 -2.871232
2007-03-05 09:27:34 51°19.655 2°51.765 8.7161 3.660556 33.21096 -2.871232
2007-03-05 09:27:39 51°19.657 2°51.771 8.7164 3.659416 33.200345 -2.871232
2007-03-05 09:27:45 51°19.66 2°51.779 8.7156 3.656826 33.173316 -2.871232
2007-03-05 09:27:49 51°19.662 2°51.784 8.7148 3.656308 33.168976 -2.871232
2007-03-05 09:27:55 51°19.665 2°51.791 8.7148 3.659312 33.200187 -2.871232
2007-03-05 09:28:00 51°19.667 2°51.797 8.7159 3.659623 33.203324 -2.871232
2007-03-05 09:28:05 51°19.67 2°51.803 8.715 3.659623 33.203324 -2.871232
2007-03-05 09:28:09 51°19.672 2°51.807 8.7166 3.65175 33.122975 -2.871232
2007-03-05 09:28:14 51°19.674 2°51.814 8.7151 3.659002 33.19705 -2.871232
2007-03-05 09:28:19 51°19.677 2°51.82 8.7145 3.659209 33.199141 -2.871232
2007-03-05 09:28:24 51°19.679 2°51.827 8.7166 3.656101 33.167771 -2.871232
2007-03-05 09:28:30 51°19.683 2°51.834 8.7148 3.655997 33.166726 -2.871232
2007-03-05 09:28:35 51°19.686 2°51.84 8.7128 3.655997 33.166726 -2.871232
2007-03-05 09:28:40 51°19.687 2°51.848 8.714 3.65724 33.179273 -2.871232
2007-03-05 09:28:44 51°19.69 2°51.852 8.7159 3.657551 33.181523 -2.871232
2007-03-05 09:28:49 51°19.692 2°51.859 8.7152 3.654961 33.155384 -2.871232
2007-03-05 09:28:55 51°19.695 2°51.867 8.7157 3.659105 33.197208 -2.871232
2007-03-05 09:28:59 51°19.697 2°51.872 8.7154 3.659727 33.20437 -2.871232
2007-03-05 09:29:04 51°19.699 2°51.878 8.7137 3.659727 33.20437 -2.871232
2007-03-05 09:29:09 51°19.701 2°51.885 8.7139 3.659002 33.197938 -2.871232
2007-03-05 09:29:15 51°19.704 2°51.893 8.7155 3.658587 33.193755 -2.871232
2007-03-05 09:29:19 51°19.706 2°51.897 8.7152 3.657655 33.184343 -2.871232
2007-03-05 09:29:24 51°19.709 2°51.904 8.7134 3.65838 33.191663 -2.871232
2007-03-05 09:29:29 51°19.712 2°51.909 8.713 3.658794 33.195846 -2.871232
2007-03-05 09:29:35 51°19.714 2°51.918 8.713 3.658794 33.195846 -2.871232
2007-03-05 09:29:40 51°19.717 2°51.923 8.7115 3.657448 33.183139 -2.871232
2007-03-05 09:29:44 51°19.719 2°51.929 8.7115 3.658173 33.190459 -2.871232
2007-03-05 09:29:50 51°19.722 2°51.936 8.7097 3.654961 33.157157 -2.871232
2007-03-05 09:29:55 51°19.725 2°51.942 8.7108 3.65838 33.191663 -2.871232
2007-03-05 09:29:59 51°19.727 2°51.947 8.712 3.65952 33.203167 -2.871232
2007-03-05 09:30:05 51°19.73 2°51.954 8.7104 3.65952 33.203167 -2.871232
2007-03-05 09:30:09 51°19.733 2°51.959 8.7116 3.660452 33.213467 -2.871232
2007-03-05 09:30:15 51°19.736 2°51.966 8.7112 3.658587 33.19553 -2.871232
2007-03-05 09:30:19 51°19.738 2°51.971 8.7112 3.657966 33.190143 -2.871232
2007-03-05 09:30:24 51°19.74 2°51.978 8.7076 3.659002 33.200601 -2.871232
2007-03-05 09:30:30 51°19.743 2°51.986 8.7088 3.657655 33.187893 -2.871232
2007-03-05 09:30:35 51°19.746 2°51.991 8.709 3.657655 33.187893 -2.871232
2007-03-05 09:30:39 51°19.748 2°51.996 8.7071 3.657655 33.187893 -2.871232
2007-03-05 09:30:44 51°19.751 2°52.002 8.7068 3.659002 33.201489 -2.871232
2007-03-05 09:30:50 51°19.754 2°52.01 8.7063 3.657033 33.181619 -2.871232
2007-03-05 09:30:55 51°19.757 2°52.016 8.7055 3.657551 33.186848 -2.871232
2007-03-05 09:30:59 51°19.759 2°52.021 8.7069 3.652268 33.134404 -2.871232
2007-03-05 09:31:04 51°19.761 2°52.026 8.7052 3.652268 33.134404 -2.871232
2007-03-05 09:31:09 51°19.764 2°52.032 8.7037 3.658069 33.193852 -2.871232
2007-03-05 09:31:15 51°19.767 2°52.04 8.7036 3.655479 33.168594 -2.871232
2007-03-05 09:31:20 51°19.77 2°52.046 8.7038 3.65693 33.183235 -2.871232
2007-03-05 09:31:24 51°19.772 2°52.051 8.7043 3.654754 33.163047 -2.871232
2007-03-05 09:31:29 51°19.775 2°52.056 8.7041 3.656722 33.183806 -2.871232
2007-03-05 09:31:35 51°19.779 2°52.063 8.7009 3.656722 33.183806 -2.871232
2007-03-05 09:31:40 51°19.781 2°52.07 8.7007 3.658691 33.20368 -2.871232
2007-03-05 09:31:45 51°19.784 2°52.076 8.6996 3.657137 33.188878 -2.871232
2007-03-05 09:31:49 51°19.786 2°52.08 8.6998 3.658484 33.203364 -2.871232
2007-03-05 09:31:54 51°19.789 2°52.086 8.6979 3.657758 33.196042 -2.871232
2007-03-05 09:32:00 51°19.793 2°52.093 8.6997 3.652993 33.147929 -2.871232
2007-03-05 09:32:05 51°19.796 2°52.099 8.6974 3.652993 33.147929 -2.871232
2007-03-05 09:32:10 51°19.798 2°52.105 8.6953 3.659416 33.214556 -2.871232
2007-03-05 09:32:15 51°19.801 2°52.111 8.6942 3.654651 33.167325 -2.871232
2007-03-05 09:32:19 51°19.804 2°52.116 8.6945 3.65434 33.164187 -2.871232
2007-03-05 09:32:25 51°19.807 2°52.123 8.6931 3.657033 33.193159 -2.871232
2007-03-05 09:32:29 51°19.809 2°52.128 8.694 3.655583 33.178514 -2.871232
2007-03-05 09:32:35 51°19.813 2°52.135 8.6939 3.655583 33.178514 -2.871232
2007-03-05 09:32:39 51°19.815 2°52.14 8.6941 3.655687 33.180448 -2.871232
2007-03-05 09:32:45 51°19.818 2°52.148 8.6897 3.655687 33.182223 -2.871232
2007-03-05 09:32:50 51°19.822 2°52.153 8.6881 3.652164 33.147543 -2.871232
2007-03-05 09:32:55 51°19.824 2°52.159 8.6876 3.657033 33.1976 -2.871232
2007-03-05 09:32:59 51°19.827 2°52.164 8.6848 3.656308 33.191165 -2.871232
2007-03-05 09:33:04 51°19.83 2°52.17 8.6842 3.656308 33.191165 -2.871232
2007-03-05 09:33:10 51°19.833 2°52.177 8.6844 3.656619 33.195192 -2.871232
2007-03-05 09:33:15 51°19.836 2°52.183 8.6828 3.656101 33.18996 -2.871232
2007-03-05 09:33:19 51°19.838 2°52.188 8.6812 3.653822 33.168718 -2.871232
2007-03-05 09:33:24 51°19.841 2°52.194 8.681 3.656205 33.19456 -2.871232
2007-03-05 09:33:29 51°19.843 2°52.2 8.68 3.650196 33.135649 -2.871232
2007-03-05 09:33:35 51°19.847 2°52.207 8.6776 3.650196 33.135649 -2.871232
2007-03-05 09:33:40 51°19.849 2°52.213 8.6772 3.654236 33.17823 -2.871232
2007-03-05 09:33:44 51°19.852 2°52.218 8.6757 3.653511 33.171793 -2.871232
2007-03-05 09:33:49 51°19.854 2°52.224 8.6758 3.652061 33.158919 -2.871232
2007-03-05 09:33:55 51°19.858 2°52.232 8.6745 3.650403 33.143951 -2.871232
2007-03-05 09:33:59 51°19.86 2°52.236 8.6733 3.643462 33.073853 -2.871232
2007-03-05 09:34:04 51°19.863 2°52.243 8.6737 3.643462 33.073853 -2.871232
2007-03-05 09:34:09 51°19.866 2°52.248 8.6715 3.65175 33.15933 -2.871232
2007-03-05 09:34:15 51°19.869 2°52.256 8.6695 3.651336 33.156031 -2.871232
2007-03-05 09:34:20 51°19.872 2°52.262 8.6698 3.653097 33.174711 -2.871232
2007-03-05 09:34:24 51°19.874 2°52.267 8.6678 3.649471 33.138969 -2.871232
2007-03-05 09:34:30 51°19.878 2°52.274 8.6674 3.650507 33.150322 -2.871232
2007-03-05 09:34:35 51°19.88 2°52.28 8.6677 3.650507 33.150322 -2.871232
2007-03-05 09:34:39 51°19.882 2°52.285 8.6642 3.651646 33.16361 -2.871232
2007-03-05 09:34:45 51°19.886 2°52.292 8.6656 3.6503 33.151779 -2.871232
2007-03-05 09:34:49 51°19.888 2°52.298 8.6654 3.651957 33.169415 -2.871232
2007-03-05 09:34:55 51°19.891 2°52.305 8.6653 3.649989 33.150414 -2.871232
2007-03-05 09:34:59 51°19.893 2°52.31 8.6644 3.651854 33.171033 -2.871232
2007-03-05 09:35:05 51°19.897 2°52.317 8.6602 3.651854 33.171033 -2.871232
2007-03-05 09:35:09 51°19.899 2°52.322 8.6592 3.648953 33.141722 -2.871232
2007-03-05 09:35:15 51°19.902 2°52.329 8.6587 3.650611 33.160247 -2.871232
2007-03-05 09:35:20 51°19.905 2°52.335 8.6583 3.649575 33.151554 -2.871232
2007-03-05 09:35:24 51°19.907 2°52.34 8.6586 3.648953 33.144385 -2.871232
2007-03-05 09:35:29 51°19.91 2°52.346 8.656 3.649575 33.151554 -2.871232
2007-03-05 09:35:35 51°19.912 2°52.353 8.6578 3.649575 33.151554 -2.871232
2007-03-05 09:35:39 51°19.915 2°52.358 8.6544 3.648746 33.144067 -2.871232
2007-03-05 09:35:45 51°19.918 2°52.366 8.6543 3.650507 33.164529 -2.871232
2007-03-05 09:35:49 51°19.92 2°52.37 8.6519 3.647503 33.135942 -2.871232
2007-03-05 09:35:55 51°19.923 2°52.377 8.6528 3.647917 33.141018 -2.871232
2007-03-05 09:36:00 51°19.926 2°52.383 8.6527 3.64398 33.102122 -2.871232
2007-03-05 09:36:04 51°19.928 2°52.388 8.6509 3.64398 33.102122 -2.871232
2007-03-05 09:36:09 51°19.931 2°52.394 8.6515 3.648332 33.146094 -2.871232
2007-03-05 09:36:15 51°19.935 2°52.401 8.6508 3.645638 33.120647 -2.871232
2007-03-05 09:36:19 51°19.937 2°52.406 8.648 3.646052 33.125722 -2.871232
2007-03-05 09:36:25 51°19.94 2°52.414 8.6462 3.644913 33.115092 -2.871232
2007-03-05 09:36:29 51°19.942 2°52.419 8.6465 3.647399 33.14111 -2.871232
2007-03-05 09:36:35 51°19.945 2°52.426 8.6471 3.647399 33.14111 -2.871232
2007-03-05 09:36:39 51°19.947 2°52.431 8.6458 3.642945 33.096974 -2.871232
2007-03-05 09:36:44 51°19.95 2°52.438 8.6454 3.643152 33.099068 -2.871232
2007-03-05 09:36:50 51°19.953 2°52.444 8.6429 3.636418 33.032796 -2.871232
2007-03-05 09:36:55 51°19.956 2°52.45 8.6428 3.646985 33.141361 -2.871232
2007-03-05 09:36:59 51°19.958 2°52.455 8.6415 3.646467 33.137012 -2.871232
2007-03-05 09:37:05 51°19.962 2°52.462 8.6402 3.646467 33.137012 -2.871232
2007-03-05 09:37:10 51°19.964 2°52.469 8.6396 3.645742 33.130569 -2.871232
2007-03-05 09:37:15 51°19.967 2°52.474 8.6391 3.64512 33.125174 -2.871232
2007-03-05 09:37:19 51°19.969 2°52.48 8.6373 3.645535 33.13025 -2.871232
2007-03-05 09:37:24 51°19.972 2°52.486 8.6365 3.642841 33.103909 -2.871232
2007-03-05 09:37:30 51°19.976 2°52.493 8.6362 3.642841 33.104797 -2.871232
2007-03-05 09:37:35 51°19.978 2°52.499 8.6356 3.642841 33.104797 -2.871232
2007-03-05 09:37:39 51°19.981 2°52.504 8.6349 3.643877 33.117044 -2.871232
2007-03-05 09:37:44 51°19.983 2°52.511 8.6357 3.645638 33.135738 -2.871232
2007-03-05 09:37:49 51°19.986 2°52.517 8.633 3.644809 33.128246 -2.871232
2007-03-05 09:37:55 51°19.989 2°52.524 8.6305 3.642634 33.108026 -2.871232
2007-03-05 09:37:59 51°19.991 2°52.53 8.6301 3.641805 33.100534 -2.871232
2007-03-05 09:38:04 51°19.994 2°52.536 8.632 3.641805 33.100534 -2.871232
2007-03-05 09:38:09 51°19.997 2°52.542 8.6322 3.63963 33.07854 -2.871232
2007-03-05 09:38:15 51°20 2°52.55 8.6307 3.644188 33.125513 -2.871232
2007-03-05 09:38:20 51°20.003 2°52.556 8.6281 3.63963 33.080314 -2.871232
2007-03-05 09:38:24 51°20.005 2°52.561 8.628 3.643256 33.118749 -2.871232
2007-03-05 09:38:29 51°20.008 2°52.567 8.6271 3.643048 33.11843 -2.871232
2007-03-05 09:38:34 51°20.011 2°52.573 8.6265 3.643048 33.11843 -2.871232
2007-03-05 09:38:40 51°20.014 2°52.581 8.6264 3.637661 33.06396 -2.871232
2007-03-05 09:38:45 51°20.018 2°52.586 8.6273 3.642841 33.117222 -2.871232
2007-03-05 09:38:49 51°20.02 2°52.591 8.6247 3.641598 33.105539 -2.871232
2007-03-05 09:38:55 51°20.023 2°52.598 8.6251 3.642323 33.112872 -2.871232
2007-03-05 09:39:00 51°20.026 2°52.604 8.6237 3.641184 33.103123 -2.871232
2007-03-05 09:39:05 51°20.029 2°52.61 8.6249 3.641184 33.103123 -2.871232
2007-03-05 09:39:09 51°20.031 2°52.615 8.6234 3.638283 33.074678 -2.871232
2007-03-05 09:39:14 51°20.035 2°52.62 8.6237 3.640044 33.093374 -2.871232
2007-03-05 09:39:19 51°20.037 2°52.626 8.6237 3.634968 33.042046 -2.871232
2007-03-05 09:39:25 51°20.041 2°52.633 8.6223 3.639319 33.086928 -2.871232